<?xml version='1.0' encoding='UTF-8'?><gpx version="1.1" creator="JPX - https://github.com/jenetics/jpx" xmlns="http://www.topografix.com/GPX/1/1"><trk><trkseg><trkpt lat="42.6940713" lon="13.6129341"><ele>1197.0</ele><time>2026-04-09T09:50:04.193Z</time></trkpt><trkpt lat="42.6940848" lon="13.6130337"><ele>1197.0</ele><time>2026-04-09T09:50:06.191Z</time></trkpt><trkpt lat="42.6940978" lon="13.6131465"><ele>1197.0</ele><time>2026-04-09T09:50:08.181Z</time></trkpt><trkpt lat="42.6941127" lon="13.6132603"><ele>1197.0</ele><time>2026-04-09T09:50:10.187Z</time></trkpt><trkpt lat="42.6941296" lon="13.6133739"><ele>1197.0</ele><time>2026-04-09T09:50:12.182Z</time></trkpt><trkpt lat="42.694141" lon="13.6134689"><ele>1197.0</ele><time>2026-04-09T09:50:14.192Z</time></trkpt><trkpt lat="42.6941421" lon="13.613571"><ele>1195.4</ele><time>2026-04-09T09:50:34.18Z</time></trkpt><trkpt lat="42.6941488" lon="13.6137681"><ele>1193.8000000000002</ele><time>2026-04-09T09:50:36.195Z</time></trkpt><trkpt lat="42.6941608" lon="13.6138986"><ele>1192.2</ele><time>2026-04-09T09:50:37.193Z</time></trkpt><trkpt lat="42.6941759" lon="13.6140389"><ele>1190.6000000000001</ele><time>2026-04-09T09:50:38.192Z</time></trkpt><trkpt lat="42.6941991" lon="13.6141758"><ele>1189.0</ele><time>2026-04-09T09:50:39.19Z</time></trkpt><trkpt lat="42.6942419" lon="13.6143083"><ele>1189.0</ele><time>2026-04-09T09:50:40.177Z</time></trkpt><trkpt lat="42.6942917" lon="13.6144406"><ele>1189.0</ele><time>2026-04-09T09:50:41.197Z</time></trkpt><trkpt lat="42.6943402" lon="13.6145815"><ele>1189.0</ele><time>2026-04-09T09:50:42.189Z</time></trkpt><trkpt lat="42.6943832" lon="13.6147372"><ele>1189.0</ele><time>2026-04-09T09:50:43.188Z</time></trkpt><trkpt lat="42.6944066" lon="13.6149087"><ele>1188.4</ele><time>2026-04-09T09:50:44.187Z</time></trkpt><trkpt lat="42.6944005" lon="13.6150637"><ele>1187.8000000000002</ele><time>2026-04-09T09:50:45.185Z</time></trkpt><trkpt lat="42.694398" lon="13.615205"><ele>1187.1999999999998</ele><time>2026-04-09T09:50:46.187Z</time></trkpt><trkpt lat="42.6943929" lon="13.6153284"><ele>1186.6</ele><time>2026-04-09T09:50:47.185Z</time></trkpt><trkpt lat="42.694426" lon="13.6154544"><ele>1186.0</ele><time>2026-04-09T09:50:48.186Z</time></trkpt><trkpt lat="42.6944962" lon="13.6155761"><ele>1187.3999999999999</ele><time>2026-04-09T09:50:49.179Z</time></trkpt><trkpt lat="42.6945656" lon="13.6157006"><ele>1188.8</ele><time>2026-04-09T09:50:50.178Z</time></trkpt><trkpt lat="42.6946262" lon="13.6158183"><ele>1190.1999999999998</ele><time>2026-04-09T09:50:51.183Z</time></trkpt><trkpt lat="42.6946605" lon="13.6159326"><ele>1191.6</ele><time>2026-04-09T09:50:52.191Z</time></trkpt><trkpt lat="42.6946565" lon="13.6160667"><ele>1193.0</ele><time>2026-04-09T09:50:53.168Z</time></trkpt><trkpt lat="42.6946235" lon="13.6162006"><ele>1193.0</ele><time>2026-04-09T09:50:54.171Z</time></trkpt><trkpt lat="42.6945857" lon="13.6163109"><ele>1193.0</ele><time>2026-04-09T09:50:55.18Z</time></trkpt><trkpt lat="42.6945467" lon="13.6163906"><ele>1193.0</ele><time>2026-04-09T09:50:56.184Z</time></trkpt><trkpt lat="42.6944344" lon="13.6164178"><ele>1193.0</ele><time>2026-04-09T09:50:58.182Z</time></trkpt><trkpt lat="42.694382" lon="13.6163546"><ele>1193.0</ele><time>2026-04-09T09:50:59.177Z</time></trkpt><trkpt lat="42.6943424" lon="13.6162634"><ele>1193.0</ele><time>2026-04-09T09:51:00.195Z</time></trkpt><trkpt lat="42.6943502" lon="13.6161628"><ele>1191.1666666666667</ele><time>2026-04-09T09:51:01.19Z</time></trkpt><trkpt lat="42.6943756" lon="13.6160533"><ele>1189.3333333333335</ele><time>2026-04-09T09:51:02.183Z</time></trkpt><trkpt lat="42.6944061" lon="13.6159476"><ele>1187.5</ele><time>2026-04-09T09:51:03.181Z</time></trkpt><trkpt lat="42.6944173" lon="13.6158477"><ele>1185.6666666666667</ele><time>2026-04-09T09:51:04.192Z</time></trkpt><trkpt lat="42.6943915" lon="13.6157343"><ele>1183.8333333333333</ele><time>2026-04-09T09:51:05.18Z</time></trkpt><trkpt lat="42.6943351" lon="13.6156217"><ele>1182.0</ele><time>2026-04-09T09:51:06.176Z</time></trkpt><trkpt lat="42.6942672" lon="13.615523"><ele>1182.0</ele><time>2026-04-09T09:51:07.187Z</time></trkpt><trkpt lat="42.6942073" lon="13.6154261"><ele>1182.0</ele><time>2026-04-09T09:51:08.193Z</time></trkpt><trkpt lat="42.6941513" lon="13.6153372"><ele>1182.0</ele><time>2026-04-09T09:51:09.173Z</time></trkpt><trkpt lat="42.6940888" lon="13.6152791"><ele>1182.0</ele><time>2026-04-09T09:51:10.18Z</time></trkpt><trkpt lat="42.6940282" lon="13.615226"><ele>1182.0</ele><time>2026-04-09T09:51:11.187Z</time></trkpt><trkpt lat="42.6939717" lon="13.6151823"><ele>1182.0</ele><time>2026-04-09T09:51:12.171Z</time></trkpt><trkpt lat="42.6938844" lon="13.6151339"><ele>1182.0</ele><time>2026-04-09T09:51:14.198Z</time></trkpt><trkpt lat="42.6938168" lon="13.6151978"><ele>1182.0</ele><time>2026-04-09T09:51:16.191Z</time></trkpt><trkpt lat="42.6937838" lon="13.6152843"><ele>1182.0</ele><time>2026-04-09T09:51:17.199Z</time></trkpt><trkpt lat="42.6937612" lon="13.615381"><ele>1182.0</ele><time>2026-04-09T09:51:18.185Z</time></trkpt><trkpt lat="42.693735" lon="13.6154719"><ele>1182.0</ele><time>2026-04-09T09:51:19.178Z</time></trkpt><trkpt lat="42.693708" lon="13.6155699"><ele>1182.0</ele><time>2026-04-09T09:51:20.178Z</time></trkpt><trkpt lat="42.693679" lon="13.615663"><ele>1182.0</ele><time>2026-04-09T09:51:21.184Z</time></trkpt><trkpt lat="42.6936492" lon="13.615752"><ele>1182.0</ele><time>2026-04-09T09:51:22.179Z</time></trkpt><trkpt lat="42.6936318" lon="13.6158387"><ele>1182.0</ele><time>2026-04-09T09:51:23.177Z</time></trkpt><trkpt lat="42.6936246" lon="13.6159342"><ele>1182.0</ele><time>2026-04-09T09:51:24.183Z</time></trkpt><trkpt lat="42.6936177" lon="13.6160239"><ele>1182.0</ele><time>2026-04-09T09:51:25.175Z</time></trkpt><trkpt lat="42.6935855" lon="13.6161732"><ele>1182.0</ele><time>2026-04-09T09:51:27.184Z</time></trkpt><trkpt lat="42.6935687" lon="13.6162955"><ele>1177.0</ele><time>2026-04-09T09:51:29.171Z</time></trkpt><trkpt lat="42.6935806" lon="13.6163896"><ele>1172.0</ele><time>2026-04-09T09:51:31.186Z</time></trkpt><trkpt lat="42.6935802" lon="13.6165063"><ele>1167.0</ele><time>2026-04-09T09:51:34.182Z</time></trkpt><trkpt lat="42.6935086" lon="13.6165456"><ele>1162.0</ele><time>2026-04-09T09:51:39.173Z</time></trkpt><trkpt lat="42.6934756" lon="13.6166463"><ele>1157.0</ele><time>2026-04-09T09:51:41.173Z</time></trkpt><trkpt lat="42.6934613" lon="13.6167829"><ele>1152.0</ele><time>2026-04-09T09:51:43.181Z</time></trkpt><trkpt lat="42.6934533" lon="13.6168683"><ele>1152.0</ele><time>2026-04-09T09:51:44.175Z</time></trkpt><trkpt lat="42.693433" lon="13.6169646"><ele>1152.0</ele><time>2026-04-09T09:51:45.178Z</time></trkpt><trkpt lat="42.6934152" lon="13.6170748"><ele>1152.0</ele><time>2026-04-09T09:51:46.18Z</time></trkpt><trkpt lat="42.6933972" lon="13.617184"><ele>1152.0</ele><time>2026-04-09T09:51:47.193Z</time></trkpt><trkpt lat="42.6933835" lon="13.6172927"><ele>1152.0</ele><time>2026-04-09T09:51:48.187Z</time></trkpt><trkpt lat="42.6933765" lon="13.6174039"><ele>1152.0</ele><time>2026-04-09T09:51:49.195Z</time></trkpt><trkpt lat="42.6933726" lon="13.6174948"><ele>1150.4</ele><time>2026-04-09T09:51:50.182Z</time></trkpt><trkpt lat="42.6934012" lon="13.6176192"><ele>1148.8000000000002</ele><time>2026-04-09T09:51:52.196Z</time></trkpt><trkpt lat="42.693449" lon="13.6177207"><ele>1147.2</ele><time>2026-04-09T09:51:54.172Z</time></trkpt><trkpt lat="42.6935151" lon="13.6177661"><ele>1145.6000000000001</ele><time>2026-04-09T09:51:56.205Z</time></trkpt><trkpt lat="42.6935733" lon="13.6178599"><ele>1144.0</ele><time>2026-04-09T09:51:58.181Z</time></trkpt><trkpt lat="42.6936383" lon="13.6179903"><ele>1144.0</ele><time>2026-04-09T09:52:00.166Z</time></trkpt><trkpt lat="42.6936908" lon="13.6181082"><ele>1144.0</ele><time>2026-04-09T09:52:02.189Z</time></trkpt><trkpt lat="42.6937079" lon="13.618219"><ele>1144.0</ele><time>2026-04-09T09:52:04.204Z</time></trkpt><trkpt lat="42.6936801" lon="13.6183182"><ele>1144.0</ele><time>2026-04-09T09:52:07.198Z</time></trkpt><trkpt lat="42.6936526" lon="13.6184309"><ele>1144.0</ele><time>2026-04-09T09:52:10.177Z</time></trkpt><trkpt lat="42.6937089" lon="13.6185581"><ele>1140.8</ele><time>2026-04-09T09:52:12.185Z</time></trkpt><trkpt lat="42.6937431" lon="13.6186519"><ele>1137.6000000000001</ele><time>2026-04-09T09:52:13.185Z</time></trkpt><trkpt lat="42.6937584" lon="13.6187819"><ele>1134.4</ele><time>2026-04-09T09:52:14.183Z</time></trkpt><trkpt lat="42.6937571" lon="13.6189244"><ele>1131.2</ele><time>2026-04-09T09:52:15.188Z</time></trkpt><trkpt lat="42.69375" lon="13.6190803"><ele>1128.0</ele><time>2026-04-09T09:52:16.195Z</time></trkpt><trkpt lat="42.6937598" lon="13.6192311"><ele>1128.0</ele><time>2026-04-09T09:52:17.214Z</time></trkpt><trkpt lat="42.693789" lon="13.6193658"><ele>1128.0</ele><time>2026-04-09T09:52:18.188Z</time></trkpt><trkpt lat="42.6938331" lon="13.6194799"><ele>1128.0</ele><time>2026-04-09T09:52:19.171Z</time></trkpt><trkpt lat="42.6938655" lon="13.619582"><ele>1128.0</ele><time>2026-04-09T09:52:20.179Z</time></trkpt><trkpt lat="42.6938956" lon="13.6196843"><ele>1128.0</ele><time>2026-04-09T09:52:21.2Z</time></trkpt><trkpt lat="42.693906" lon="13.6198232"><ele>1128.0</ele><time>2026-04-09T09:52:23.183Z</time></trkpt><trkpt lat="42.6939229" lon="13.6196943"><ele>1128.0</ele><time>2026-04-09T09:52:28.182Z</time></trkpt><trkpt lat="42.6939091" lon="13.619603"><ele>1128.0</ele><time>2026-04-09T09:52:29.179Z</time></trkpt><trkpt lat="42.6938776" lon="13.6194819"><ele>1128.0</ele><time>2026-04-09T09:52:30.186Z</time></trkpt><trkpt lat="42.6938346" lon="13.6193451"><ele>1128.0</ele><time>2026-04-09T09:52:31.17Z</time></trkpt><trkpt lat="42.6937909" lon="13.6192112"><ele>1128.0</ele><time>2026-04-09T09:52:32.185Z</time></trkpt><trkpt lat="42.6937591" lon="13.6190668"><ele>1128.0</ele><time>2026-04-09T09:52:33.18Z</time></trkpt><trkpt lat="42.6937383" lon="13.6189117"><ele>1128.0</ele><time>2026-04-09T09:52:34.217Z</time></trkpt><trkpt lat="42.6937434" lon="13.6187538"><ele>1128.0</ele><time>2026-04-09T09:52:35.183Z</time></trkpt><trkpt lat="42.6937432" lon="13.6186162"><ele>1128.0</ele><time>2026-04-09T09:52:36.188Z</time></trkpt><trkpt lat="42.6937172" lon="13.6185078"><ele>1127.0</ele><time>2026-04-09T09:52:37.172Z</time></trkpt><trkpt lat="42.6936932" lon="13.6184019"><ele>1126.0</ele><time>2026-04-09T09:52:38.177Z</time></trkpt><trkpt lat="42.6936654" lon="13.618321"><ele>1125.0</ele><time>2026-04-09T09:52:39.183Z</time></trkpt><trkpt lat="42.6935931" lon="13.6182587"><ele>1124.0</ele><time>2026-04-09T09:52:41.191Z</time></trkpt><trkpt lat="42.6935346" lon="13.6182977"><ele>1123.0</ele><time>2026-04-09T09:52:44.208Z</time></trkpt><trkpt lat="42.6935099" lon="13.6183789"><ele>1122.0</ele><time>2026-04-09T09:52:54.24Z</time></trkpt><trkpt lat="42.6934626" lon="13.6185037"><ele>1120.1666666666667</ele><time>2026-04-09T09:52:57.189Z</time></trkpt><trkpt lat="42.6934185" lon="13.6186532"><ele>1118.3333333333333</ele><time>2026-04-09T09:52:59.187Z</time></trkpt><trkpt lat="42.6933991" lon="13.6187587"><ele>1116.5</ele><time>2026-04-09T09:53:00.199Z</time></trkpt><trkpt lat="42.693373" lon="13.6188806"><ele>1114.6666666666665</ele><time>2026-04-09T09:53:01.17Z</time></trkpt><trkpt lat="42.6933503" lon="13.6189964"><ele>1112.8333333333333</ele><time>2026-04-09T09:53:02.185Z</time></trkpt><trkpt lat="42.6933369" lon="13.6190863"><ele>1111.0</ele><time>2026-04-09T09:53:03.181Z</time></trkpt><trkpt lat="42.6933416" lon="13.6191797"><ele>1111.0</ele><time>2026-04-09T09:53:05.184Z</time></trkpt><trkpt lat="42.6933707" lon="13.6192899"><ele>1111.0</ele><time>2026-04-09T09:53:07.179Z</time></trkpt><trkpt lat="42.6934054" lon="13.6194051"><ele>1111.0</ele><time>2026-04-09T09:53:09.197Z</time></trkpt><trkpt lat="42.6934273" lon="13.6194966"><ele>1111.0</ele><time>2026-04-09T09:53:11.192Z</time></trkpt><trkpt lat="42.6934161" lon="13.6196305"><ele>1111.0</ele><time>2026-04-09T09:53:13.198Z</time></trkpt><trkpt lat="42.6934095" lon="13.6197538"><ele>1111.0</ele><time>2026-04-09T09:53:15.186Z</time></trkpt><trkpt lat="42.6933964" lon="13.6198868"><ele>1107.2</ele><time>2026-04-09T09:53:17.181Z</time></trkpt><trkpt lat="42.6933867" lon="13.6200608"><ele>1103.3999999999999</ele><time>2026-04-09T09:53:19.178Z</time></trkpt><trkpt lat="42.6933798" lon="13.6201572"><ele>1099.6</ele><time>2026-04-09T09:53:20.177Z</time></trkpt><trkpt lat="42.6933634" lon="13.6202518"><ele>1095.8</ele><time>2026-04-09T09:53:21.202Z</time></trkpt><trkpt lat="42.69335" lon="13.6203411"><ele>1092.0</ele><time>2026-04-09T09:53:22.182Z</time></trkpt><trkpt lat="42.6933167" lon="13.6204957"><ele>1090.6666666666667</ele><time>2026-04-09T09:53:24.193Z</time></trkpt><trkpt lat="42.6932991" lon="13.6205793"><ele>1089.3333333333333</ele><time>2026-04-09T09:53:25.179Z</time></trkpt><trkpt lat="42.6932827" lon="13.6206661"><ele>1088.0</ele><time>2026-04-09T09:53:26.19Z</time></trkpt><trkpt lat="42.6932653" lon="13.6208281"><ele>1086.6666666666665</ele><time>2026-04-09T09:53:28.172Z</time></trkpt><trkpt lat="42.6932641" lon="13.6209192"><ele>1085.3333333333333</ele><time>2026-04-09T09:53:30.193Z</time></trkpt><trkpt lat="42.6932979" lon="13.6209992"><ele>1084.0</ele><time>2026-04-09T09:53:35.228Z</time></trkpt><trkpt lat="42.6933635" lon="13.6210604"><ele>1081.6666666666665</ele><time>2026-04-09T09:53:37.193Z</time></trkpt><trkpt lat="42.6934344" lon="13.621179"><ele>1079.3333333333333</ele><time>2026-04-09T09:53:39.207Z</time></trkpt><trkpt lat="42.6934846" lon="13.6213398"><ele>1077.0</ele><time>2026-04-09T09:53:41.162Z</time></trkpt><trkpt lat="42.6935049" lon="13.6214337"><ele>1074.6666666666667</ele><time>2026-04-09T09:53:42.189Z</time></trkpt><trkpt lat="42.6935219" lon="13.6215208"><ele>1072.3333333333335</ele><time>2026-04-09T09:53:43.182Z</time></trkpt><trkpt lat="42.693538" lon="13.6216125"><ele>1070.0</ele><time>2026-04-09T09:53:44.175Z</time></trkpt><trkpt lat="42.6935469" lon="13.6217032"><ele>1070.0</ele><time>2026-04-09T09:53:45.2Z</time></trkpt><trkpt lat="42.6935667" lon="13.6218541"><ele>1070.0</ele><time>2026-04-09T09:53:47.189Z</time></trkpt><trkpt lat="42.6935875" lon="13.6219491"><ele>1070.0</ele><time>2026-04-09T09:53:48.176Z</time></trkpt><trkpt lat="42.6936092" lon="13.6220595"><ele>1070.0</ele><time>2026-04-09T09:53:49.189Z</time></trkpt><trkpt lat="42.6936275" lon="13.6221612"><ele>1070.0</ele><time>2026-04-09T09:53:50.172Z</time></trkpt><trkpt lat="42.6936488" lon="13.6222568"><ele>1070.0</ele><time>2026-04-09T09:53:51.177Z</time></trkpt><trkpt lat="42.6936694" lon="13.622338"><ele>1071.8333333333335</ele><time>2026-04-09T09:53:52.18Z</time></trkpt><trkpt lat="42.6936802" lon="13.6224905"><ele>1073.6666666666667</ele><time>2026-04-09T09:53:54.197Z</time></trkpt><trkpt lat="42.6936687" lon="13.6225947"><ele>1075.5</ele><time>2026-04-09T09:53:55.19Z</time></trkpt><trkpt lat="42.6936309" lon="13.6227076"><ele>1077.3333333333333</ele><time>2026-04-09T09:53:56.19Z</time></trkpt><trkpt lat="42.693602" lon="13.6228123"><ele>1079.1666666666665</ele><time>2026-04-09T09:53:57.2Z</time></trkpt><trkpt lat="42.6935818" lon="13.6229135"><ele>1081.0</ele><time>2026-04-09T09:53:58.175Z</time></trkpt><trkpt lat="42.693562" lon="13.6230061"><ele>1074.1666666666665</ele><time>2026-04-09T09:53:59.176Z</time></trkpt><trkpt lat="42.6935356" lon="13.6231051"><ele>1067.3333333333333</ele><time>2026-04-09T09:54:00.2Z</time></trkpt><trkpt lat="42.6934986" lon="13.6232063"><ele>1060.5</ele><time>2026-04-09T09:54:01.173Z</time></trkpt><trkpt lat="42.6934511" lon="13.6233036"><ele>1053.6666666666667</ele><time>2026-04-09T09:54:02.167Z</time></trkpt><trkpt lat="42.6934019" lon="13.6233963"><ele>1046.8333333333335</ele><time>2026-04-09T09:54:03.185Z</time></trkpt><trkpt lat="42.6933521" lon="13.6234914"><ele>1040.0</ele><time>2026-04-09T09:54:04.176Z</time></trkpt><trkpt lat="42.6933" lon="13.6235879"><ele>1038.2</ele><time>2026-04-09T09:54:05.19Z</time></trkpt><trkpt lat="42.6932416" lon="13.6236892"><ele>1036.4</ele><time>2026-04-09T09:54:06.173Z</time></trkpt><trkpt lat="42.6931931" lon="13.6237916"><ele>1034.6</ele><time>2026-04-09T09:54:07.182Z</time></trkpt><trkpt lat="42.6931622" lon="13.6238866"><ele>1032.8</ele><time>2026-04-09T09:54:08.188Z</time></trkpt><trkpt lat="42.6931404" lon="13.624033"><ele>1031.0</ele><time>2026-04-09T09:54:10.188Z</time></trkpt><trkpt lat="42.6931555" lon="13.6241452"><ele>1031.0</ele><time>2026-04-09T09:54:12.181Z</time></trkpt><trkpt lat="42.6932287" lon="13.6242499"><ele>1031.0</ele><time>2026-04-09T09:54:14.176Z</time></trkpt><trkpt lat="42.6933176" lon="13.6243558"><ele>1031.0</ele><time>2026-04-09T09:54:16.185Z</time></trkpt><trkpt lat="42.6933718" lon="13.6244028"><ele>1031.0</ele><time>2026-04-09T09:54:17.184Z</time></trkpt><trkpt lat="42.6933937" lon="13.6244928"><ele>1031.0</ele><time>2026-04-09T09:54:19.19Z</time></trkpt><trkpt lat="42.6933619" lon="13.6245669"><ele>1031.0</ele><time>2026-04-09T09:54:21.186Z</time></trkpt><trkpt lat="42.6933124" lon="13.6246204"><ele>1028.2</ele><time>2026-04-09T09:54:23.186Z</time></trkpt><trkpt lat="42.6932589" lon="13.6247365"><ele>1025.3999999999999</ele><time>2026-04-09T09:54:26.18Z</time></trkpt><trkpt lat="42.6932304" lon="13.6248686"><ele>1022.6</ele><time>2026-04-09T09:54:28.201Z</time></trkpt><trkpt lat="42.6932259" lon="13.6250346"><ele>1019.8</ele><time>2026-04-09T09:54:30.186Z</time></trkpt><trkpt lat="42.6932197" lon="13.6251268"><ele>1017.0</ele><time>2026-04-09T09:54:31.194Z</time></trkpt><trkpt lat="42.6932141" lon="13.6252334"><ele>1014.3333333333334</ele><time>2026-04-09T09:54:33.188Z</time></trkpt><trkpt lat="42.6932199" lon="13.6253567"><ele>1011.6666666666667</ele><time>2026-04-09T09:54:44.172Z</time></trkpt><trkpt lat="42.6932111" lon="13.6254899"><ele>1009.0</ele><time>2026-04-09T09:54:46.172Z</time></trkpt><trkpt lat="42.6931938" lon="13.6255824"><ele>1006.3333333333334</ele><time>2026-04-09T09:54:47.173Z</time></trkpt><trkpt lat="42.6931781" lon="13.6256659"><ele>1003.6666666666667</ele><time>2026-04-09T09:54:48.177Z</time></trkpt><trkpt lat="42.6931342" lon="13.6258156"><ele>1001.0</ele><time>2026-04-09T09:54:50.182Z</time></trkpt><trkpt lat="42.6930451" lon="13.6259312"><ele>1001.0</ele><time>2026-04-09T09:54:52.176Z</time></trkpt><trkpt lat="42.6930057" lon="13.6260649"><ele>1001.0</ele><time>2026-04-09T09:54:54.169Z</time></trkpt><trkpt lat="42.6930017" lon="13.6261507"><ele>1001.0</ele><time>2026-04-09T09:54:55.167Z</time></trkpt><trkpt lat="42.6929919" lon="13.6262419"><ele>1001.0</ele><time>2026-04-09T09:54:56.172Z</time></trkpt><trkpt lat="42.6929776" lon="13.6263303"><ele>1001.0</ele><time>2026-04-09T09:54:57.173Z</time></trkpt><trkpt lat="42.6929542" lon="13.6264195"><ele>1001.0</ele><time>2026-04-09T09:54:58.173Z</time></trkpt><trkpt lat="42.6929269" lon="13.6265064"><ele>1001.0</ele><time>2026-04-09T09:54:59.171Z</time></trkpt><trkpt lat="42.6928877" lon="13.6265806"><ele>998.3333333333334</ele><time>2026-04-09T09:55:00.169Z</time></trkpt><trkpt lat="42.6928492" lon="13.6266526"><ele>995.6666666666667</ele><time>2026-04-09T09:55:01.18Z</time></trkpt><trkpt lat="42.6928059" lon="13.6267183"><ele>993.0</ele><time>2026-04-09T09:55:02.172Z</time></trkpt><trkpt lat="42.6927603" lon="13.6267861"><ele>990.3333333333333</ele><time>2026-04-09T09:55:03.179Z</time></trkpt><trkpt lat="42.6927117" lon="13.6268698"><ele>987.6666666666666</ele><time>2026-04-09T09:55:04.181Z</time></trkpt><trkpt lat="42.6926525" lon="13.6269731"><ele>985.0</ele><time>2026-04-09T09:55:05.177Z</time></trkpt><trkpt lat="42.6925914" lon="13.6270876"><ele>981.6</ele><time>2026-04-09T09:55:06.172Z</time></trkpt><trkpt lat="42.6925329" lon="13.6271908"><ele>978.2</ele><time>2026-04-09T09:55:07.175Z</time></trkpt><trkpt lat="42.6924834" lon="13.6272904"><ele>974.8</ele><time>2026-04-09T09:55:08.182Z</time></trkpt><trkpt lat="42.6924307" lon="13.6273923"><ele>971.4</ele><time>2026-04-09T09:55:09.169Z</time></trkpt><trkpt lat="42.6923864" lon="13.6274976"><ele>968.0</ele><time>2026-04-09T09:55:10.178Z</time></trkpt><trkpt lat="42.692342" lon="13.6276072"><ele>968.0</ele><time>2026-04-09T09:55:11.175Z</time></trkpt><trkpt lat="42.6922949" lon="13.6277246"><ele>968.0</ele><time>2026-04-09T09:55:12.173Z</time></trkpt><trkpt lat="42.6922441" lon="13.6278472"><ele>968.0</ele><time>2026-04-09T09:55:13.166Z</time></trkpt><trkpt lat="42.6921949" lon="13.6279744"><ele>968.0</ele><time>2026-04-09T09:55:14.171Z</time></trkpt><trkpt lat="42.6921461" lon="13.6281008"><ele>968.0</ele><time>2026-04-09T09:55:15.166Z</time></trkpt><trkpt lat="42.6920965" lon="13.6282288"><ele>966.4</ele><time>2026-04-09T09:55:16.175Z</time></trkpt><trkpt lat="42.6920442" lon="13.6283558"><ele>964.8</ele><time>2026-04-09T09:55:17.164Z</time></trkpt><trkpt lat="42.6919988" lon="13.6284747"><ele>963.2</ele><time>2026-04-09T09:55:18.167Z</time></trkpt><trkpt lat="42.6919565" lon="13.628584"><ele>961.6</ele><time>2026-04-09T09:55:19.175Z</time></trkpt><trkpt lat="42.6919247" lon="13.6286623"><ele>960.0</ele><time>2026-04-09T09:55:20.171Z</time></trkpt><trkpt lat="42.6918692" lon="13.6287993"><ele>957.8</ele><time>2026-04-09T09:55:22.168Z</time></trkpt><trkpt lat="42.6918187" lon="13.6289387"><ele>955.6</ele><time>2026-04-09T09:55:24.173Z</time></trkpt><trkpt lat="42.6917633" lon="13.6290971"><ele>953.4000000000001</ele><time>2026-04-09T09:55:26.167Z</time></trkpt><trkpt lat="42.6917352" lon="13.6291982"><ele>951.2</ele><time>2026-04-09T09:55:27.162Z</time></trkpt><trkpt lat="42.6917103" lon="13.6293026"><ele>949.0</ele><time>2026-04-09T09:55:28.163Z</time></trkpt><trkpt lat="42.691681" lon="13.6294088"><ele>946.8333333333333</ele><time>2026-04-09T09:55:29.175Z</time></trkpt><trkpt lat="42.691651" lon="13.6295059"><ele>944.6666666666666</ele><time>2026-04-09T09:55:30.173Z</time></trkpt><trkpt lat="42.6916213" lon="13.6296029"><ele>942.5</ele><time>2026-04-09T09:55:31.179Z</time></trkpt><trkpt lat="42.6915925" lon="13.629697"><ele>940.3333333333333</ele><time>2026-04-09T09:55:32.176Z</time></trkpt><trkpt lat="42.6915626" lon="13.6297942"><ele>938.1666666666666</ele><time>2026-04-09T09:55:33.171Z</time></trkpt><trkpt lat="42.6915336" lon="13.6298913"><ele>936.0</ele><time>2026-04-09T09:55:34.177Z</time></trkpt><trkpt lat="42.691505" lon="13.629986"><ele>936.0</ele><time>2026-04-09T09:55:35.16Z</time></trkpt><trkpt lat="42.6914788" lon="13.6300748"><ele>936.0</ele><time>2026-04-09T09:55:36.159Z</time></trkpt><trkpt lat="42.6914534" lon="13.6301563"><ele>936.0</ele><time>2026-04-09T09:55:37.166Z</time></trkpt><trkpt lat="42.6914064" lon="13.6302376"><ele>936.0</ele><time>2026-04-09T09:55:39.167Z</time></trkpt><trkpt lat="42.6914001" lon="13.6303387"><ele>936.0</ele><time>2026-04-09T09:55:42.172Z</time></trkpt><trkpt lat="42.6914649" lon="13.6302774"><ele>936.0</ele><time>2026-04-09T09:55:48.179Z</time></trkpt><trkpt lat="42.69156" lon="13.6302714"><ele>934.8</ele><time>2026-04-09T09:55:52.171Z</time></trkpt><trkpt lat="42.6916596" lon="13.6303558"><ele>933.5999999999999</ele><time>2026-04-09T09:55:54.165Z</time></trkpt><trkpt lat="42.6917591" lon="13.6304716"><ele>932.4</ele><time>2026-04-09T09:55:56.175Z</time></trkpt><trkpt lat="42.6918136" lon="13.6305419"><ele>931.2</ele><time>2026-04-09T09:55:57.175Z</time></trkpt><trkpt lat="42.6918633" lon="13.6306207"><ele>930.0</ele><time>2026-04-09T09:55:58.165Z</time></trkpt><trkpt lat="42.6919035" lon="13.6306965"><ele>930.0</ele><time>2026-04-09T09:55:59.17Z</time></trkpt><trkpt lat="42.6919381" lon="13.6307778"><ele>930.0</ele><time>2026-04-09T09:56:00.174Z</time></trkpt><trkpt lat="42.6919363" lon="13.6308794"><ele>930.0</ele><time>2026-04-09T09:56:01.173Z</time></trkpt><trkpt lat="42.6919179" lon="13.6309754"><ele>930.0</ele><time>2026-04-09T09:56:02.183Z</time></trkpt><trkpt lat="42.6919092" lon="13.6311269"><ele>930.0</ele><time>2026-04-09T09:56:04.165Z</time></trkpt><trkpt lat="42.691952" lon="13.6312838"><ele>927.6</ele><time>2026-04-09T09:56:06.178Z</time></trkpt><trkpt lat="42.6919346" lon="13.6313904"><ele>925.2</ele><time>2026-04-09T09:56:07.165Z</time></trkpt><trkpt lat="42.6919118" lon="13.6315156"><ele>922.8</ele><time>2026-04-09T09:56:08.174Z</time></trkpt><trkpt lat="42.6918614" lon="13.6316523"><ele>920.4</ele><time>2026-04-09T09:56:09.176Z</time></trkpt><trkpt lat="42.6918129" lon="13.6317713"><ele>918.0</ele><time>2026-04-09T09:56:10.174Z</time></trkpt><trkpt lat="42.6917728" lon="13.6318628"><ele>918.0</ele><time>2026-04-09T09:56:11.172Z</time></trkpt><trkpt lat="42.6917406" lon="13.6319528"><ele>918.0</ele><time>2026-04-09T09:56:12.173Z</time></trkpt><trkpt lat="42.6917109" lon="13.6320381"><ele>918.0</ele><time>2026-04-09T09:56:13.167Z</time></trkpt><trkpt lat="42.6917016" lon="13.6321919"><ele>918.0</ele><time>2026-04-09T09:56:15.171Z</time></trkpt><trkpt lat="42.6917089" lon="13.6323368"><ele>918.0</ele><time>2026-04-09T09:56:17.186Z</time></trkpt><trkpt lat="42.6917022" lon="13.6324249"><ele>918.0</ele><time>2026-04-09T09:56:18.176Z</time></trkpt><trkpt lat="42.6916884" lon="13.6325176"><ele>915.5</ele><time>2026-04-09T09:56:19.16Z</time></trkpt><trkpt lat="42.6916717" lon="13.6326129"><ele>913.0</ele><time>2026-04-09T09:56:20.18Z</time></trkpt><trkpt lat="42.6916577" lon="13.6327028"><ele>910.5</ele><time>2026-04-09T09:56:21.17Z</time></trkpt><trkpt lat="42.6916412" lon="13.632801"><ele>908.0</ele><time>2026-04-09T09:56:22.169Z</time></trkpt><trkpt lat="42.691624" lon="13.6329129"><ele>905.5</ele><time>2026-04-09T09:56:23.17Z</time></trkpt><trkpt lat="42.6916071" lon="13.6330204"><ele>903.0</ele><time>2026-04-09T09:56:24.175Z</time></trkpt><trkpt lat="42.6915893" lon="13.6331201"><ele>901.3333333333334</ele><time>2026-04-09T09:56:25.173Z</time></trkpt><trkpt lat="42.6915742" lon="13.6332232"><ele>899.6666666666667</ele><time>2026-04-09T09:56:26.167Z</time></trkpt><trkpt lat="42.6915585" lon="13.6333478"><ele>898.0</ele><time>2026-04-09T09:56:27.174Z</time></trkpt><trkpt lat="42.6915487" lon="13.6334746"><ele>896.3333333333334</ele><time>2026-04-09T09:56:28.178Z</time></trkpt><trkpt lat="42.6915429" lon="13.6335858"><ele>894.6666666666667</ele><time>2026-04-09T09:56:29.172Z</time></trkpt><trkpt lat="42.6915372" lon="13.6336877"><ele>893.0</ele><time>2026-04-09T09:56:30.172Z</time></trkpt><trkpt lat="42.691532" lon="13.6337932"><ele>891.6666666666667</ele><time>2026-04-09T09:56:31.176Z</time></trkpt><trkpt lat="42.6915285" lon="13.633881"><ele>890.3333333333334</ele><time>2026-04-09T09:56:32.166Z</time></trkpt><trkpt lat="42.691519" lon="13.6340318"><ele>889.0</ele><time>2026-04-09T09:56:34.175Z</time></trkpt><trkpt lat="42.691487" lon="13.634123"><ele>887.6666666666667</ele><time>2026-04-09T09:56:36.179Z</time></trkpt><trkpt lat="42.6915698" lon="13.6340412"><ele>886.3333333333334</ele><time>2026-04-09T09:56:42.18Z</time></trkpt><trkpt lat="42.6916272" lon="13.6339928"><ele>885.0</ele><time>2026-04-09T09:56:43.169Z</time></trkpt><trkpt lat="42.6916884" lon="13.6339426"><ele>885.0</ele><time>2026-04-09T09:56:44.178Z</time></trkpt><trkpt lat="42.6917647" lon="13.6338968"><ele>885.0</ele><time>2026-04-09T09:56:45.166Z</time></trkpt><trkpt lat="42.6918523" lon="13.6338548"><ele>885.0</ele><time>2026-04-09T09:56:46.176Z</time></trkpt><trkpt lat="42.6919413" lon="13.6338227"><ele>885.0</ele><time>2026-04-09T09:56:47.174Z</time></trkpt><trkpt lat="42.6920525" lon="13.6338068"><ele>885.0</ele><time>2026-04-09T09:56:48.174Z</time></trkpt><trkpt lat="42.6921374" lon="13.6338117"><ele>883.1666666666666</ele><time>2026-04-09T09:56:49.188Z</time></trkpt><trkpt lat="42.6922129" lon="13.6338178"><ele>881.3333333333333</ele><time>2026-04-09T09:56:50.161Z</time></trkpt><trkpt lat="42.6922855" lon="13.633826"><ele>879.5</ele><time>2026-04-09T09:56:51.176Z</time></trkpt><trkpt lat="42.692354" lon="13.6338304"><ele>877.6666666666666</ele><time>2026-04-09T09:56:52.172Z</time></trkpt><trkpt lat="42.6924212" lon="13.6338312"><ele>875.8333333333333</ele><time>2026-04-09T09:56:53.176Z</time></trkpt><trkpt lat="42.6924857" lon="13.63383"><ele>874.0</ele><time>2026-04-09T09:56:54.165Z</time></trkpt><trkpt lat="42.6926088" lon="13.6338441"><ele>874.0</ele><time>2026-04-09T09:56:56.178Z</time></trkpt><trkpt lat="42.6927186" lon="13.6338652"><ele>874.0000000000001</ele><time>2026-04-09T09:56:58.17Z</time></trkpt><trkpt lat="42.6927824" lon="13.6338421"><ele>874.0000000000001</ele><time>2026-04-09T09:57:01.178Z</time></trkpt><trkpt lat="42.6927054" lon="13.633828"><ele>874.0</ele><time>2026-04-09T09:57:05.168Z</time></trkpt><trkpt lat="42.6925858" lon="13.6338152"><ele>874.0</ele><time>2026-04-09T09:57:07.177Z</time></trkpt><trkpt lat="42.6924795" lon="13.6337996"><ele>874.0</ele><time>2026-04-09T09:57:08.173Z</time></trkpt><trkpt lat="42.6923789" lon="13.633802"><ele>874.0000000000001</ele><time>2026-04-09T09:57:09.18Z</time></trkpt><trkpt lat="42.6922739" lon="13.6338054"><ele>874.0000000000001</ele><time>2026-04-09T09:57:10.168Z</time></trkpt><trkpt lat="42.6921723" lon="13.6337991"><ele>874.0</ele><time>2026-04-09T09:57:11.175Z</time></trkpt><trkpt lat="42.6920764" lon="13.6337878"><ele>874.0</ele><time>2026-04-09T09:57:12.177Z</time></trkpt><trkpt lat="42.6919837" lon="13.6337908"><ele>876.2</ele><time>2026-04-09T09:57:13.172Z</time></trkpt><trkpt lat="42.6918946" lon="13.633816"><ele>878.4000000000001</ele><time>2026-04-09T09:57:14.238Z</time></trkpt><trkpt lat="42.6917246" lon="13.6338887"><ele>880.6</ele><time>2026-04-09T09:57:16.2Z</time></trkpt><trkpt lat="42.6916692" lon="13.6339364"><ele>882.8</ele><time>2026-04-09T09:57:17.2Z</time></trkpt><trkpt lat="42.6915836" lon="13.634015"><ele>885.0</ele><time>2026-04-09T09:57:19.213Z</time></trkpt><trkpt lat="42.6915286" lon="13.6340617"><ele>885.0</ele><time>2026-04-09T09:57:22.183Z</time></trkpt><trkpt lat="42.6914446" lon="13.6341405"><ele>885.0</ele><time>2026-04-09T09:57:41.178Z</time></trkpt><trkpt lat="42.6913703" lon="13.6342071"><ele>885.0</ele><time>2026-04-09T09:57:43.191Z</time></trkpt><trkpt lat="42.6913028" lon="13.6342679"><ele>885.0</ele><time>2026-04-09T09:57:45.178Z</time></trkpt><trkpt lat="42.6912428" lon="13.6343197"><ele>885.0</ele><time>2026-04-09T09:57:46.183Z</time></trkpt><trkpt lat="42.6911673" lon="13.6343902"><ele>885.0</ele><time>2026-04-09T09:57:47.181Z</time></trkpt><trkpt lat="42.6910917" lon="13.6344813"><ele>887.25</ele><time>2026-04-09T09:57:48.181Z</time></trkpt><trkpt lat="42.6910103" lon="13.6345719"><ele>889.5</ele><time>2026-04-09T09:57:49.182Z</time></trkpt><trkpt lat="42.6909274" lon="13.6346906"><ele>891.75</ele><time>2026-04-09T09:57:50.183Z</time></trkpt><trkpt lat="42.6908603" lon="13.6348335"><ele>894.0</ele><time>2026-04-09T09:57:51.181Z</time></trkpt><trkpt lat="42.6908037" lon="13.6349758"><ele>894.0</ele><time>2026-04-09T09:57:52.179Z</time></trkpt><trkpt lat="42.6907506" lon="13.6350927"><ele>894.0</ele><time>2026-04-09T09:57:53.168Z</time></trkpt><trkpt lat="42.6906789" lon="13.635163"><ele>894.0</ele><time>2026-04-09T09:57:54.164Z</time></trkpt><trkpt lat="42.6905796" lon="13.635191"><ele>894.0</ele><time>2026-04-09T09:57:55.173Z</time></trkpt><trkpt lat="42.6904894" lon="13.6352099"><ele>894.0</ele><time>2026-04-09T09:57:56.165Z</time></trkpt><trkpt lat="42.6904247" lon="13.6351956"><ele>894.0</ele><time>2026-04-09T09:57:57.172Z</time></trkpt><trkpt lat="42.6903213" lon="13.6351579"><ele>894.0</ele><time>2026-04-09T09:57:59.168Z</time></trkpt><trkpt lat="42.6902584" lon="13.6351209"><ele>894.0</ele><time>2026-04-09T09:58:01.173Z</time></trkpt><trkpt lat="42.6903196" lon="13.6351789"><ele>894.0</ele><time>2026-04-09T09:58:21.172Z</time></trkpt><trkpt lat="42.6903893" lon="13.6352042"><ele>894.0</ele><time>2026-04-09T09:58:22.172Z</time></trkpt><trkpt lat="42.690465" lon="13.6352312"><ele>894.0</ele><time>2026-04-09T09:58:23.185Z</time></trkpt><trkpt lat="42.6905484" lon="13.6352558"><ele>894.0</ele><time>2026-04-09T09:58:24.184Z</time></trkpt><trkpt lat="42.6906411" lon="13.6352619"><ele>894.0</ele><time>2026-04-09T09:58:25.171Z</time></trkpt><trkpt lat="42.6907363" lon="13.6352475"><ele>894.0000000000001</ele><time>2026-04-09T09:58:26.165Z</time></trkpt><trkpt lat="42.6908346" lon="13.6351773"><ele>894.0000000000001</ele><time>2026-04-09T09:58:27.177Z</time></trkpt><trkpt lat="42.6909226" lon="13.6350639"><ele>894.0</ele><time>2026-04-09T09:58:28.174Z</time></trkpt><trkpt lat="42.6909877" lon="13.6349361"><ele>894.0</ele><time>2026-04-09T09:58:29.172Z</time></trkpt><trkpt lat="42.6910411" lon="13.6348232"><ele>894.0</ele><time>2026-04-09T09:58:30.177Z</time></trkpt><trkpt lat="42.6910773" lon="13.6347011"><ele>894.0000000000001</ele><time>2026-04-09T09:58:31.178Z</time></trkpt><trkpt lat="42.6911215" lon="13.6345848"><ele>894.0000000000001</ele><time>2026-04-09T09:58:32.185Z</time></trkpt><trkpt lat="42.6911694" lon="13.634473"><ele>894.0</ele><time>2026-04-09T09:58:33.174Z</time></trkpt><trkpt lat="42.6912401" lon="13.6343782"><ele>894.0</ele><time>2026-04-09T09:58:34.178Z</time></trkpt><trkpt lat="42.6913136" lon="13.6343001"><ele>892.5</ele><time>2026-04-09T09:58:35.188Z</time></trkpt><trkpt lat="42.6913806" lon="13.6342291"><ele>891.0</ele><time>2026-04-09T09:58:36.167Z</time></trkpt><trkpt lat="42.691432" lon="13.6341711"><ele>889.5</ele><time>2026-04-09T09:58:37.186Z</time></trkpt><trkpt lat="42.6914884" lon="13.6342273"><ele>888.0</ele><time>2026-04-09T09:58:41.195Z</time></trkpt><trkpt lat="42.6914418" lon="13.6343378"><ele>886.5</ele><time>2026-04-09T09:58:43.173Z</time></trkpt><trkpt lat="42.6914014" lon="13.6344156"><ele>885.0</ele><time>2026-04-09T09:58:44.186Z</time></trkpt><trkpt lat="42.6913646" lon="13.6345081"><ele>882.6666666666666</ele><time>2026-04-09T09:58:45.184Z</time></trkpt><trkpt lat="42.6913281" lon="13.6345988"><ele>880.3333333333333</ele><time>2026-04-09T09:58:46.18Z</time></trkpt><trkpt lat="42.6912958" lon="13.6346921"><ele>878.0</ele><time>2026-04-09T09:58:47.18Z</time></trkpt><trkpt lat="42.6912674" lon="13.6347795"><ele>875.6666666666666</ele><time>2026-04-09T09:58:48.181Z</time></trkpt><trkpt lat="42.6912405" lon="13.6348697"><ele>873.3333333333333</ele><time>2026-04-09T09:58:49.182Z</time></trkpt><trkpt lat="42.6912261" lon="13.6349696"><ele>871.0</ele><time>2026-04-09T09:58:50.18Z</time></trkpt><trkpt lat="42.6912097" lon="13.6350894"><ele>870.9999999999999</ele><time>2026-04-09T09:58:51.17Z</time></trkpt><trkpt lat="42.6911919" lon="13.6351897"><ele>871.0</ele><time>2026-04-09T09:58:52.173Z</time></trkpt><trkpt lat="42.6911826" lon="13.6352774"><ele>871.0</ele><time>2026-04-09T09:58:53.17Z</time></trkpt><trkpt lat="42.6911607" lon="13.635422"><ele>871.0</ele><time>2026-04-09T09:58:55.19Z</time></trkpt><trkpt lat="42.6911107" lon="13.6355378"><ele>870.9999999999999</ele><time>2026-04-09T09:58:57.182Z</time></trkpt><trkpt lat="42.6910675" lon="13.6356088"><ele>871.0</ele><time>2026-04-09T09:58:58.17Z</time></trkpt><trkpt lat="42.6910208" lon="13.6356806"><ele>870.9999999999999</ele><time>2026-04-09T09:58:59.168Z</time></trkpt><trkpt lat="42.6909725" lon="13.6357479"><ele>871.0</ele><time>2026-04-09T09:59:00.171Z</time></trkpt><trkpt lat="42.6909278" lon="13.6358091"><ele>871.0</ele><time>2026-04-09T09:59:01.175Z</time></trkpt><trkpt lat="42.6908322" lon="13.6359469"><ele>871.0</ele><time>2026-04-09T09:59:03.168Z</time></trkpt><trkpt lat="42.690775" lon="13.6360026"><ele>870.9999999999999</ele><time>2026-04-09T09:59:04.173Z</time></trkpt><trkpt lat="42.6907053" lon="13.6360359"><ele>871.0</ele><time>2026-04-09T09:59:05.17Z</time></trkpt><trkpt lat="42.6906403" lon="13.6360644"><ele>870.9999999999999</ele><time>2026-04-09T09:59:06.168Z</time></trkpt><trkpt lat="42.6905825" lon="13.6360998"><ele>871.0</ele><time>2026-04-09T09:59:07.161Z</time></trkpt><trkpt lat="42.6905244" lon="13.6361386"><ele>871.0</ele><time>2026-04-09T09:59:08.168Z</time></trkpt><trkpt lat="42.6904602" lon="13.6361799"><ele>871.0</ele><time>2026-04-09T09:59:09.159Z</time></trkpt><trkpt lat="42.6903906" lon="13.6362282"><ele>870.9999999999999</ele><time>2026-04-09T09:59:10.157Z</time></trkpt><trkpt lat="42.6902908" lon="13.6363122"><ele>871.0</ele><time>2026-04-09T09:59:11.167Z</time></trkpt><trkpt lat="42.6901989" lon="13.6363921"><ele>868.0</ele><time>2026-04-09T09:59:12.162Z</time></trkpt><trkpt lat="42.6901022" lon="13.6365276"><ele>864.9999999999999</ele><time>2026-04-09T09:59:13.181Z</time></trkpt><trkpt lat="42.6900371" lon="13.6366306"><ele>861.9999999999999</ele><time>2026-04-09T09:59:14.18Z</time></trkpt><trkpt lat="42.6900082" lon="13.6367478"><ele>859.0</ele><time>2026-04-09T09:59:15.179Z</time></trkpt><trkpt lat="42.6900026" lon="13.6368507"><ele>856.0</ele><time>2026-04-09T09:59:16.175Z</time></trkpt><trkpt lat="42.6899326" lon="13.6369494"><ele>852.6666666666666</ele><time>2026-04-09T09:59:18.21Z</time></trkpt><trkpt lat="42.6898709" lon="13.6369812"><ele>849.3333333333333</ele><time>2026-04-09T09:59:19.173Z</time></trkpt><trkpt lat="42.6897885" lon="13.6369851"><ele>846.0</ele><time>2026-04-09T09:59:20.186Z</time></trkpt><trkpt lat="42.6897145" lon="13.6370018"><ele>842.6666666666667</ele><time>2026-04-09T09:59:21.173Z</time></trkpt><trkpt lat="42.6896471" lon="13.6370389"><ele>839.3333333333334</ele><time>2026-04-09T09:59:22.175Z</time></trkpt><trkpt lat="42.6895803" lon="13.6370976"><ele>836.0</ele><time>2026-04-09T09:59:23.183Z</time></trkpt><trkpt lat="42.6895119" lon="13.6371664"><ele>836.0000000000001</ele><time>2026-04-09T09:59:24.174Z</time></trkpt><trkpt lat="42.6894562" lon="13.6372324"><ele>836.0</ele><time>2026-04-09T09:59:25.173Z</time></trkpt><trkpt lat="42.689416" lon="13.6373054"><ele>836.0</ele><time>2026-04-09T09:59:26.173Z</time></trkpt><trkpt lat="42.6893971" lon="13.6374059"><ele>836.0</ele><time>2026-04-09T09:59:27.168Z</time></trkpt><trkpt lat="42.6893624" lon="13.6374922"><ele>836.0000000000001</ele><time>2026-04-09T09:59:28.189Z</time></trkpt><trkpt lat="42.6892667" lon="13.6375818"><ele>836.0</ele><time>2026-04-09T09:59:30.175Z</time></trkpt><trkpt lat="42.6891971" lon="13.6376055"><ele>837.0</ele><time>2026-04-09T09:59:31.178Z</time></trkpt><trkpt lat="42.6891124" lon="13.6376404"><ele>838.0</ele><time>2026-04-09T09:59:32.18Z</time></trkpt><trkpt lat="42.689021" lon="13.6376739"><ele>839.0</ele><time>2026-04-09T09:59:33.183Z</time></trkpt><trkpt lat="42.6889372" lon="13.6377227"><ele>840.0</ele><time>2026-04-09T09:59:34.173Z</time></trkpt><trkpt lat="42.6888445" lon="13.6377753"><ele>841.0</ele><time>2026-04-09T09:59:35.165Z</time></trkpt><trkpt lat="42.6887568" lon="13.6378255"><ele>837.4</ele><time>2026-04-09T09:59:36.173Z</time></trkpt><trkpt lat="42.6886536" lon="13.637919"><ele>833.8</ele><time>2026-04-09T09:59:37.178Z</time></trkpt><trkpt lat="42.6885646" lon="13.6380042"><ele>830.1999999999999</ele><time>2026-04-09T09:59:38.179Z</time></trkpt><trkpt lat="42.6884878" lon="13.6380791"><ele>826.5999999999999</ele><time>2026-04-09T09:59:39.177Z</time></trkpt><trkpt lat="42.6884223" lon="13.6381441"><ele>823.0</ele><time>2026-04-09T09:59:40.17Z</time></trkpt><trkpt lat="42.6883587" lon="13.6382138"><ele>823.0</ele><time>2026-04-09T09:59:41.178Z</time></trkpt><trkpt lat="42.6883173" lon="13.6382951"><ele>823.0</ele><time>2026-04-09T09:59:42.163Z</time></trkpt><trkpt lat="42.6882912" lon="13.6384432"><ele>823.0</ele><time>2026-04-09T09:59:44.167Z</time></trkpt><trkpt lat="42.6882716" lon="13.6385859"><ele>823.0</ele><time>2026-04-09T09:59:46.172Z</time></trkpt><trkpt lat="42.6881953" lon="13.6386912"><ele>823.0</ele><time>2026-04-09T09:59:48.175Z</time></trkpt><trkpt lat="42.6880912" lon="13.6387675"><ele>819.6666666666666</ele><time>2026-04-09T09:59:50.161Z</time></trkpt><trkpt lat="42.688027" lon="13.6388218"><ele>816.3333333333333</ele><time>2026-04-09T09:59:51.173Z</time></trkpt><trkpt lat="42.6879691" lon="13.638866"><ele>813.0</ele><time>2026-04-09T09:59:52.172Z</time></trkpt><trkpt lat="42.6878676" lon="13.6389595"><ele>809.6666666666667</ele><time>2026-04-09T09:59:54.183Z</time></trkpt><trkpt lat="42.6878135" lon="13.6390125"><ele>806.3333333333334</ele><time>2026-04-09T09:59:55.175Z</time></trkpt><trkpt lat="42.6877626" lon="13.6390718"><ele>803.0</ele><time>2026-04-09T09:59:56.169Z</time></trkpt><trkpt lat="42.6876844" lon="13.6392108"><ele>802.3333333333334</ele><time>2026-04-09T09:59:58.172Z</time></trkpt><trkpt lat="42.687655" lon="13.6392889"><ele>801.6666666666667</ele><time>2026-04-09T09:59:59.182Z</time></trkpt><trkpt lat="42.687613" lon="13.6393709"><ele>801.0</ele><time>2026-04-09T10:00:00.17Z</time></trkpt><trkpt lat="42.6875642" lon="13.6394546"><ele>800.3333333333333</ele><time>2026-04-09T10:00:01.185Z</time></trkpt><trkpt lat="42.6874987" lon="13.6395595"><ele>799.6666666666666</ele><time>2026-04-09T10:00:02.18Z</time></trkpt><trkpt lat="42.6874306" lon="13.6396469"><ele>799.0</ele><time>2026-04-09T10:00:03.175Z</time></trkpt><trkpt lat="42.6873612" lon="13.6397487"><ele>795.9999999999999</ele><time>2026-04-09T10:00:04.178Z</time></trkpt><trkpt lat="42.6873001" lon="13.6398437"><ele>793.0</ele><time>2026-04-09T10:00:05.17Z</time></trkpt><trkpt lat="42.6872479" lon="13.639929"><ele>790.0</ele><time>2026-04-09T10:00:06.179Z</time></trkpt><trkpt lat="42.687201" lon="13.6400026"><ele>787.0</ele><time>2026-04-09T10:00:07.178Z</time></trkpt><trkpt lat="42.6871599" lon="13.6400759"><ele>783.9999999999999</ele><time>2026-04-09T10:00:08.166Z</time></trkpt><trkpt lat="42.6871272" lon="13.6401511"><ele>781.0</ele><time>2026-04-09T10:00:09.17Z</time></trkpt><trkpt lat="42.6870757" lon="13.6402865"><ele>778.1666666666666</ele><time>2026-04-09T10:00:11.178Z</time></trkpt><trkpt lat="42.6870262" lon="13.6404136"><ele>775.3333333333333</ele><time>2026-04-09T10:00:13.172Z</time></trkpt><trkpt lat="42.6869846" lon="13.6405358"><ele>772.5</ele><time>2026-04-09T10:00:15.177Z</time></trkpt><trkpt lat="42.6869083" lon="13.6406214"><ele>769.6666666666666</ele><time>2026-04-09T10:00:17.167Z</time></trkpt><trkpt lat="42.6868453" lon="13.6406793"><ele>766.8333333333333</ele><time>2026-04-09T10:00:19.173Z</time></trkpt><trkpt lat="42.6868442" lon="13.6407714"><ele>764.0</ele><time>2026-04-09T10:00:21.185Z</time></trkpt><trkpt lat="42.6868574" lon="13.6409387"><ele>763.1666666666666</ele><time>2026-04-09T10:00:23.199Z</time></trkpt><trkpt lat="42.6868539" lon="13.6410387"><ele>762.3333333333333</ele><time>2026-04-09T10:00:24.178Z</time></trkpt><trkpt lat="42.6868598" lon="13.641138"><ele>761.5</ele><time>2026-04-09T10:00:25.174Z</time></trkpt><trkpt lat="42.6868751" lon="13.6412971"><ele>760.6666666666666</ele><time>2026-04-09T10:00:27.19Z</time></trkpt><trkpt lat="42.6868968" lon="13.6414508"><ele>759.8333333333334</ele><time>2026-04-09T10:00:29.19Z</time></trkpt><trkpt lat="42.6868774" lon="13.6415352"><ele>759.0</ele><time>2026-04-09T10:00:30.198Z</time></trkpt><trkpt lat="42.6868542" lon="13.6416229"><ele>757.8333333333334</ele><time>2026-04-09T10:00:31.221Z</time></trkpt><trkpt lat="42.6868184" lon="13.6417175"><ele>756.6666666666666</ele><time>2026-04-09T10:00:32.177Z</time></trkpt><trkpt lat="42.6867815" lon="13.6418353"><ele>755.5</ele><time>2026-04-09T10:00:33.185Z</time></trkpt><trkpt lat="42.6867532" lon="13.6419314"><ele>754.3333333333333</ele><time>2026-04-09T10:00:34.167Z</time></trkpt><trkpt lat="42.6867288" lon="13.6420195"><ele>753.1666666666666</ele><time>2026-04-09T10:00:35.18Z</time></trkpt><trkpt lat="42.6866705" lon="13.642161"><ele>752.0</ele><time>2026-04-09T10:00:37.174Z</time></trkpt><trkpt lat="42.6865906" lon="13.6422373"><ele>749.4000000000001</ele><time>2026-04-09T10:00:39.18Z</time></trkpt><trkpt lat="42.6865097" lon="13.6422973"><ele>746.8000000000001</ele><time>2026-04-09T10:00:41.176Z</time></trkpt><trkpt lat="42.6864056" lon="13.6423506"><ele>744.2</ele><time>2026-04-09T10:00:43.167Z</time></trkpt><trkpt lat="42.6863411" lon="13.6423744"><ele>741.6</ele><time>2026-04-09T10:00:44.173Z</time></trkpt><trkpt lat="42.6862318" lon="13.6424254"><ele>739.0</ele><time>2026-04-09T10:00:46.165Z</time></trkpt><trkpt lat="42.6861804" lon="13.6424804"><ele>739.0</ele><time>2026-04-09T10:00:48.178Z</time></trkpt><trkpt lat="42.6861353" lon="13.6425582"><ele>739.0</ele><time>2026-04-09T10:00:51.167Z</time></trkpt><trkpt lat="42.6860833" lon="13.642645"><ele>739.0</ele><time>2026-04-09T10:00:54.176Z</time></trkpt><trkpt lat="42.6860372" lon="13.6427229"><ele>739.0</ele><time>2026-04-09T10:00:56.177Z</time></trkpt><trkpt lat="42.6860178" lon="13.642811"><ele>739.0</ele><time>2026-04-09T10:01:12.168Z</time></trkpt><trkpt lat="42.6860895" lon="13.6428002"><ele>739.0</ele><time>2026-04-09T10:01:18.156Z</time></trkpt><trkpt lat="42.6861533" lon="13.6427917"><ele>739.0</ele><time>2026-04-09T10:01:19.176Z</time></trkpt><trkpt lat="42.6862358" lon="13.6427747"><ele>739.0</ele><time>2026-04-09T10:01:20.173Z</time></trkpt><trkpt lat="42.6863337" lon="13.6427561"><ele>739.0</ele><time>2026-04-09T10:01:21.167Z</time></trkpt><trkpt lat="42.6864287" lon="13.6427415"><ele>739.0</ele><time>2026-04-09T10:01:22.171Z</time></trkpt><trkpt lat="42.6865047" lon="13.6427324"><ele>739.0</ele><time>2026-04-09T10:01:23.159Z</time></trkpt><trkpt lat="42.6866183" lon="13.6427081"><ele>739.0</ele><time>2026-04-09T10:01:25.175Z</time></trkpt><trkpt lat="42.6866956" lon="13.6426907"><ele>739.0</ele><time>2026-04-09T10:01:27.18Z</time></trkpt><trkpt lat="42.6867888" lon="13.6426891"><ele>739.0</ele><time>2026-04-09T10:01:29.17Z</time></trkpt><trkpt lat="42.6868687" lon="13.642682"><ele>739.0</ele><time>2026-04-09T10:01:30.182Z</time></trkpt><trkpt lat="42.6869467" lon="13.6426634"><ele>739.0</ele><time>2026-04-09T10:01:31.175Z</time></trkpt><trkpt lat="42.6870212" lon="13.6426348"><ele>739.0</ele><time>2026-04-09T10:01:32.167Z</time></trkpt><trkpt lat="42.6870868" lon="13.642596"><ele>739.0</ele><time>2026-04-09T10:01:33.175Z</time></trkpt><trkpt lat="42.6871523" lon="13.6425407"><ele>736.8000000000001</ele><time>2026-04-09T10:01:34.163Z</time></trkpt><trkpt lat="42.6872229" lon="13.6424713"><ele>734.6</ele><time>2026-04-09T10:01:35.173Z</time></trkpt><trkpt lat="42.6873018" lon="13.6423615"><ele>732.4</ele><time>2026-04-09T10:01:36.174Z</time></trkpt><trkpt lat="42.6873913" lon="13.6422472"><ele>730.2</ele><time>2026-04-09T10:01:37.17Z</time></trkpt><trkpt lat="42.6874869" lon="13.6421372"><ele>728.0</ele><time>2026-04-09T10:01:38.177Z</time></trkpt><trkpt lat="42.6875644" lon="13.6420509"><ele>728.0</ele><time>2026-04-09T10:01:39.174Z</time></trkpt><trkpt lat="42.687638" lon="13.6419768"><ele>728.0</ele><time>2026-04-09T10:01:40.168Z</time></trkpt><trkpt lat="42.6877134" lon="13.6419126"><ele>728.0</ele><time>2026-04-09T10:01:41.167Z</time></trkpt><trkpt lat="42.6877932" lon="13.641851"><ele>728.0</ele><time>2026-04-09T10:01:42.171Z</time></trkpt><trkpt lat="42.6878673" lon="13.6417943"><ele>728.0</ele><time>2026-04-09T10:01:43.168Z</time></trkpt><trkpt lat="42.6879252" lon="13.6417461"><ele>728.0</ele><time>2026-04-09T10:01:44.172Z</time></trkpt><trkpt lat="42.6880143" lon="13.6416302"><ele>729.5</ele><time>2026-04-09T10:01:46.174Z</time></trkpt><trkpt lat="42.6880628" lon="13.6415495"><ele>731.0</ele><time>2026-04-09T10:01:47.17Z</time></trkpt><trkpt lat="42.6881499" lon="13.6414858"><ele>732.5</ele><time>2026-04-09T10:01:49.164Z</time></trkpt><trkpt lat="42.688218" lon="13.6415001"><ele>734.0</ele><time>2026-04-09T10:01:50.171Z</time></trkpt><trkpt lat="42.6882903" lon="13.6415036"><ele>735.5</ele><time>2026-04-09T10:01:51.169Z</time></trkpt><trkpt lat="42.6883599" lon="13.6415087"><ele>737.0</ele><time>2026-04-09T10:01:52.173Z</time></trkpt><trkpt lat="42.6884289" lon="13.6415115"><ele>737.0</ele><time>2026-04-09T10:01:53.165Z</time></trkpt><trkpt lat="42.6884926" lon="13.64151"><ele>737.0</ele><time>2026-04-09T10:01:54.174Z</time></trkpt><trkpt lat="42.6886079" lon="13.6415044"><ele>737.0</ele><time>2026-04-09T10:01:56.172Z</time></trkpt><trkpt lat="42.688674" lon="13.6415051"><ele>737.0</ele><time>2026-04-09T10:01:57.166Z</time></trkpt><trkpt lat="42.6887502" lon="13.6415306"><ele>737.0</ele><time>2026-04-09T10:01:58.173Z</time></trkpt><trkpt lat="42.6888224" lon="13.6415632"><ele>737.0</ele><time>2026-04-09T10:01:59.187Z</time></trkpt><trkpt lat="42.6888893" lon="13.6415851"><ele>737.6666666666666</ele><time>2026-04-09T10:02:00.171Z</time></trkpt><trkpt lat="42.6889609" lon="13.6415885"><ele>738.3333333333333</ele><time>2026-04-09T10:02:01.175Z</time></trkpt><trkpt lat="42.689033" lon="13.6415752"><ele>739.0</ele><time>2026-04-09T10:02:02.171Z</time></trkpt><trkpt lat="42.6891165" lon="13.6415568"><ele>739.6666666666666</ele><time>2026-04-09T10:02:03.176Z</time></trkpt><trkpt lat="42.6891957" lon="13.6415304"><ele>740.3333333333334</ele><time>2026-04-09T10:02:04.174Z</time></trkpt><trkpt lat="42.6892666" lon="13.641498"><ele>741.0</ele><time>2026-04-09T10:02:05.171Z</time></trkpt><trkpt lat="42.6893488" lon="13.6414493"><ele>738.5999999999999</ele><time>2026-04-09T10:02:06.171Z</time></trkpt><trkpt lat="42.6894332" lon="13.6413999"><ele>736.2</ele><time>2026-04-09T10:02:07.182Z</time></trkpt><trkpt lat="42.6895234" lon="13.6413441"><ele>733.8</ele><time>2026-04-09T10:02:08.167Z</time></trkpt><trkpt lat="42.6896086" lon="13.6412953"><ele>731.4000000000001</ele><time>2026-04-09T10:02:09.17Z</time></trkpt><trkpt lat="42.6896958" lon="13.6412493"><ele>729.0</ele><time>2026-04-09T10:02:10.165Z</time></trkpt><trkpt lat="42.6897922" lon="13.641199"><ele>729.0</ele><time>2026-04-09T10:02:11.161Z</time></trkpt><trkpt lat="42.6898952" lon="13.6411526"><ele>729.0</ele><time>2026-04-09T10:02:12.169Z</time></trkpt><trkpt lat="42.6899878" lon="13.6411145"><ele>729.0</ele><time>2026-04-09T10:02:13.174Z</time></trkpt><trkpt lat="42.6900668" lon="13.6410942"><ele>729.0</ele><time>2026-04-09T10:02:14.17Z</time></trkpt><trkpt lat="42.690143" lon="13.6410702"><ele>729.0</ele><time>2026-04-09T10:02:15.169Z</time></trkpt><trkpt lat="42.6902154" lon="13.6410415"><ele>729.0</ele><time>2026-04-09T10:02:16.178Z</time></trkpt><trkpt lat="42.6902805" lon="13.6409922"><ele>731.0</ele><time>2026-04-09T10:02:17.168Z</time></trkpt><trkpt lat="42.6903405" lon="13.6409217"><ele>733.0</ele><time>2026-04-09T10:02:18.183Z</time></trkpt><trkpt lat="42.6903912" lon="13.6408294"><ele>735.0</ele><time>2026-04-09T10:02:19.171Z</time></trkpt><trkpt lat="42.6904329" lon="13.6407485"><ele>737.0</ele><time>2026-04-09T10:02:20.174Z</time></trkpt><trkpt lat="42.6904702" lon="13.6406795"><ele>739.0</ele><time>2026-04-09T10:02:21.168Z</time></trkpt><trkpt lat="42.6905543" lon="13.6406135"><ele>741.0</ele><time>2026-04-09T10:02:23.175Z</time></trkpt><trkpt lat="42.6906261" lon="13.640593"><ele>741.0</ele><time>2026-04-09T10:02:24.172Z</time></trkpt><trkpt lat="42.6907021" lon="13.6405452"><ele>741.0</ele><time>2026-04-09T10:02:25.173Z</time></trkpt><trkpt lat="42.6907717" lon="13.6404833"><ele>741.0</ele><time>2026-04-09T10:02:26.176Z</time></trkpt><trkpt lat="42.6908443" lon="13.6404249"><ele>741.0</ele><time>2026-04-09T10:02:27.171Z</time></trkpt><trkpt lat="42.6909049" lon="13.6403758"><ele>741.0</ele><time>2026-04-09T10:02:28.177Z</time></trkpt><trkpt lat="42.690959" lon="13.6403264"><ele>741.0</ele><time>2026-04-09T10:02:29.175Z</time></trkpt><trkpt lat="42.6910114" lon="13.6402664"><ele>745.0</ele><time>2026-04-09T10:02:30.176Z</time></trkpt><trkpt lat="42.6910771" lon="13.6401881"><ele>749.0</ele><time>2026-04-09T10:02:31.175Z</time></trkpt><trkpt lat="42.6911498" lon="13.6400958"><ele>753.0</ele><time>2026-04-09T10:02:32.175Z</time></trkpt><trkpt lat="42.6912243" lon="13.6400034"><ele>757.0</ele><time>2026-04-09T10:02:33.169Z</time></trkpt><trkpt lat="42.6912975" lon="13.6399177"><ele>761.0</ele><time>2026-04-09T10:02:34.172Z</time></trkpt><trkpt lat="42.6913646" lon="13.6398529"><ele>762.0</ele><time>2026-04-09T10:02:35.175Z</time></trkpt><trkpt lat="42.691433" lon="13.6397881"><ele>763.0</ele><time>2026-04-09T10:02:36.175Z</time></trkpt><trkpt lat="42.6914898" lon="13.6397176"><ele>764.0</ele><time>2026-04-09T10:02:37.176Z</time></trkpt><trkpt lat="42.6915452" lon="13.6396484"><ele>765.0</ele><time>2026-04-09T10:02:38.174Z</time></trkpt><trkpt lat="42.6915958" lon="13.6395836"><ele>766.0</ele><time>2026-04-09T10:02:39.166Z</time></trkpt><trkpt lat="42.6917051" lon="13.6395265"><ele>767.0</ele><time>2026-04-09T10:02:41.175Z</time></trkpt><trkpt lat="42.69183" lon="13.6395483"><ele>767.0</ele><time>2026-04-09T10:02:43.174Z</time></trkpt><trkpt lat="42.6919168" lon="13.6396228"><ele>767.0</ele><time>2026-04-09T10:02:45.179Z</time></trkpt><trkpt lat="42.6920162" lon="13.6396279"><ele>767.0</ele><time>2026-04-09T10:02:48.176Z</time></trkpt><trkpt lat="42.692103" lon="13.6395914"><ele>767.0</ele><time>2026-04-09T10:02:50.183Z</time></trkpt><trkpt lat="42.6922127" lon="13.639555"><ele>767.0</ele><time>2026-04-09T10:02:52.175Z</time></trkpt><trkpt lat="42.6922978" lon="13.6395004"><ele>770.0</ele><time>2026-04-09T10:04:07.192Z</time></trkpt><trkpt lat="42.6923582" lon="13.63944"><ele>773.0</ele><time>2026-04-09T10:04:08.168Z</time></trkpt><trkpt lat="42.6924245" lon="13.6393694"><ele>776.0</ele><time>2026-04-09T10:04:09.193Z</time></trkpt><trkpt lat="42.6924864" lon="13.6392968"><ele>779.0</ele><time>2026-04-09T10:04:10.184Z</time></trkpt><trkpt lat="42.6925321" lon="13.639232"><ele>782.0000000000001</ele><time>2026-04-09T10:04:11.165Z</time></trkpt><trkpt lat="42.6926136" lon="13.6391102"><ele>785.0</ele><time>2026-04-09T10:04:13.192Z</time></trkpt><trkpt lat="42.6926655" lon="13.639059"><ele>785.0</ele><time>2026-04-09T10:04:14.169Z</time></trkpt><trkpt lat="42.6927263" lon="13.6390362"><ele>785.0</ele><time>2026-04-09T10:04:15.167Z</time></trkpt><trkpt lat="42.6928026" lon="13.6390225"><ele>785.0</ele><time>2026-04-09T10:04:16.186Z</time></trkpt><trkpt lat="42.6928776" lon="13.6390166"><ele>785.0</ele><time>2026-04-09T10:04:17.18Z</time></trkpt><trkpt lat="42.6929506" lon="13.6390092"><ele>785.0</ele><time>2026-04-09T10:04:18.188Z</time></trkpt><trkpt lat="42.6930244" lon="13.6389905"><ele>785.0</ele><time>2026-04-09T10:04:19.222Z</time></trkpt><trkpt lat="42.6930974" lon="13.6389553"><ele>785.0</ele><time>2026-04-09T10:04:20.172Z</time></trkpt><trkpt lat="42.6931701" lon="13.6389229"><ele>782.8333333333334</ele><time>2026-04-09T10:04:21.178Z</time></trkpt><trkpt lat="42.6932682" lon="13.6388987"><ele>780.6666666666667</ele><time>2026-04-09T10:04:23.188Z</time></trkpt><trkpt lat="42.6933597" lon="13.6389144"><ele>778.5</ele><time>2026-04-09T10:04:25.175Z</time></trkpt><trkpt lat="42.6934536" lon="13.638909"><ele>776.3333333333333</ele><time>2026-04-09T10:04:27.177Z</time></trkpt><trkpt lat="42.6935336" lon="13.6388735"><ele>774.1666666666666</ele><time>2026-04-09T10:04:29.195Z</time></trkpt><trkpt lat="42.6936081" lon="13.6388391"><ele>772.0</ele><time>2026-04-09T10:04:31.194Z</time></trkpt><trkpt lat="42.6936642" lon="13.6387846"><ele>771.8</ele><time>2026-04-09T10:04:33.173Z</time></trkpt><trkpt lat="42.6937378" lon="13.6386556"><ele>771.6</ele><time>2026-04-09T10:04:35.182Z</time></trkpt><trkpt lat="42.6937788" lon="13.6385738"><ele>771.4</ele><time>2026-04-09T10:04:36.186Z</time></trkpt><trkpt lat="42.6938129" lon="13.6385012"><ele>771.1999999999999</ele><time>2026-04-09T10:04:37.189Z</time></trkpt><trkpt lat="42.6938726" lon="13.638388"><ele>771.0</ele><time>2026-04-09T10:04:39.19Z</time></trkpt><trkpt lat="42.693956" lon="13.6383075"><ele>771.0</ele><time>2026-04-09T10:04:41.177Z</time></trkpt><trkpt lat="42.6940466" lon="13.6382216"><ele>771.0</ele><time>2026-04-09T10:04:43.184Z</time></trkpt><trkpt lat="42.6941308" lon="13.638158"><ele>771.0</ele><time>2026-04-09T10:04:45.181Z</time></trkpt><trkpt lat="42.6942291" lon="13.6381418"><ele>771.0</ele><time>2026-04-09T10:04:47.186Z</time></trkpt><trkpt lat="42.6943292" lon="13.6381678"><ele>771.0</ele><time>2026-04-09T10:04:49.179Z</time></trkpt><trkpt lat="42.6944263" lon="13.638214"><ele>767.0</ele><time>2026-04-09T10:04:51.176Z</time></trkpt><trkpt lat="42.6945145" lon="13.6382504"><ele>763.0</ele><time>2026-04-09T10:04:53.182Z</time></trkpt><trkpt lat="42.6945882" lon="13.6382863"><ele>759.0</ele><time>2026-04-09T10:04:55.169Z</time></trkpt><trkpt lat="42.6946457" lon="13.6382459"><ele>755.0</ele><time>2026-04-09T10:05:04.192Z</time></trkpt><trkpt lat="42.6946995" lon="13.6381177"><ele>751.0</ele><time>2026-04-09T10:05:06.179Z</time></trkpt><trkpt lat="42.6947621" lon="13.6379794"><ele>751.0</ele><time>2026-04-09T10:05:07.192Z</time></trkpt><trkpt lat="42.6948159" lon="13.6378654"><ele>751.0</ele><time>2026-04-09T10:05:08.184Z</time></trkpt><trkpt lat="42.694865" lon="13.6377635"><ele>751.0</ele><time>2026-04-09T10:05:09.177Z</time></trkpt><trkpt lat="42.6949486" lon="13.637654"><ele>751.0</ele><time>2026-04-09T10:05:11.218Z</time></trkpt><trkpt lat="42.6950348" lon="13.6375575"><ele>751.0</ele><time>2026-04-09T10:05:13.197Z</time></trkpt><trkpt lat="42.695089" lon="13.6374882"><ele>752.0</ele><time>2026-04-09T10:05:14.173Z</time></trkpt><trkpt lat="42.6951623" lon="13.6374226"><ele>753.0</ele><time>2026-04-09T10:05:15.186Z</time></trkpt><trkpt lat="42.6952454" lon="13.6373623"><ele>754.0</ele><time>2026-04-09T10:05:16.184Z</time></trkpt><trkpt lat="42.6953305" lon="13.6373021"><ele>755.0</ele><time>2026-04-09T10:05:17.182Z</time></trkpt><trkpt lat="42.6953902" lon="13.6372628"><ele>756.0</ele><time>2026-04-09T10:05:18.185Z</time></trkpt><trkpt lat="42.6954861" lon="13.6371591"><ele>753.0</ele><time>2026-04-09T10:05:20.179Z</time></trkpt><trkpt lat="42.6955438" lon="13.6370555"><ele>750.0</ele><time>2026-04-09T10:05:21.188Z</time></trkpt><trkpt lat="42.6956046" lon="13.6369713"><ele>747.0</ele><time>2026-04-09T10:05:22.188Z</time></trkpt><trkpt lat="42.6956504" lon="13.6369026"><ele>744.0</ele><time>2026-04-09T10:05:23.181Z</time></trkpt><trkpt lat="42.6956943" lon="13.6368281"><ele>741.0</ele><time>2026-04-09T10:05:24.186Z</time></trkpt><trkpt lat="42.6957573" lon="13.6366984"><ele>738.0</ele><time>2026-04-09T10:05:26.184Z</time></trkpt><trkpt lat="42.695835" lon="13.6365907"><ele>738.0</ele><time>2026-04-09T10:05:28.18Z</time></trkpt><trkpt lat="42.6959257" lon="13.6365328"><ele>738.0</ele><time>2026-04-09T10:05:30.18Z</time></trkpt><trkpt lat="42.6960205" lon="13.6364656"><ele>738.0</ele><time>2026-04-09T10:05:32.197Z</time></trkpt><trkpt lat="42.6960768" lon="13.6364001"><ele>738.0</ele><time>2026-04-09T10:05:33.181Z</time></trkpt><trkpt lat="42.6961258" lon="13.6363127"><ele>738.0</ele><time>2026-04-09T10:05:34.178Z</time></trkpt><trkpt lat="42.6961558" lon="13.6362139"><ele>738.0</ele><time>2026-04-09T10:05:35.175Z</time></trkpt><trkpt lat="42.6962004" lon="13.6361137"><ele>739.0</ele><time>2026-04-09T10:05:36.184Z</time></trkpt><trkpt lat="42.6962346" lon="13.6360252"><ele>740.0</ele><time>2026-04-09T10:05:37.173Z</time></trkpt><trkpt lat="42.6962552" lon="13.6359385"><ele>741.0</ele><time>2026-04-09T10:05:38.179Z</time></trkpt><trkpt lat="42.6962695" lon="13.6358093"><ele>742.0</ele><time>2026-04-09T10:05:40.181Z</time></trkpt><trkpt lat="42.6963335" lon="13.6357315"><ele>743.0</ele><time>2026-04-09T10:05:43.163Z</time></trkpt><trkpt lat="42.696431" lon="13.6357678"><ele>744.0</ele><time>2026-04-09T10:05:45.158Z</time></trkpt><trkpt lat="42.6964907" lon="13.6358044"><ele>744.0</ele><time>2026-04-09T10:05:46.177Z</time></trkpt><trkpt lat="42.6965522" lon="13.6358625"><ele>744.0</ele><time>2026-04-09T10:05:47.166Z</time></trkpt><trkpt lat="42.6965912" lon="13.6359724"><ele>744.0</ele><time>2026-04-09T10:05:48.168Z</time></trkpt><trkpt lat="42.696618" lon="13.6360825"><ele>744.0</ele><time>2026-04-09T10:05:49.173Z</time></trkpt><trkpt lat="42.6966709" lon="13.636224"><ele>744.0</ele><time>2026-04-09T10:05:50.174Z</time></trkpt><trkpt lat="42.6967279" lon="13.6363493"><ele>740.25</ele><time>2026-04-09T10:05:51.168Z</time></trkpt><trkpt lat="42.6968062" lon="13.6364783"><ele>736.5</ele><time>2026-04-09T10:05:52.167Z</time></trkpt><trkpt lat="42.6968868" lon="13.6365927"><ele>732.75</ele><time>2026-04-09T10:05:53.174Z</time></trkpt><trkpt lat="42.6969678" lon="13.6366945"><ele>729.0</ele><time>2026-04-09T10:05:54.171Z</time></trkpt><trkpt lat="42.6970612" lon="13.6367913"><ele>729.0</ele><time>2026-04-09T10:05:55.175Z</time></trkpt><trkpt lat="42.6971627" lon="13.6368684"><ele>729.0</ele><time>2026-04-09T10:05:56.173Z</time></trkpt><trkpt lat="42.6972525" lon="13.6369396"><ele>729.0</ele><time>2026-04-09T10:05:57.168Z</time></trkpt><trkpt lat="42.6973147" lon="13.6370168"><ele>729.0</ele><time>2026-04-09T10:05:58.165Z</time></trkpt><trkpt lat="42.6973544" lon="13.6370952"><ele>729.0</ele><time>2026-04-09T10:05:59.173Z</time></trkpt><trkpt lat="42.6974255" lon="13.6372029"><ele>727.0</ele><time>2026-04-09T10:06:01.174Z</time></trkpt><trkpt lat="42.6975221" lon="13.6372463"><ele>725.0</ele><time>2026-04-09T10:06:03.18Z</time></trkpt><trkpt lat="42.6975715" lon="13.6373051"><ele>723.0</ele><time>2026-04-09T10:06:04.192Z</time></trkpt><trkpt lat="42.6976168" lon="13.6373863"><ele>721.0</ele><time>2026-04-09T10:06:05.183Z</time></trkpt><trkpt lat="42.6976977" lon="13.6374728"><ele>719.0</ele><time>2026-04-09T10:06:07.187Z</time></trkpt><trkpt lat="42.6977808" lon="13.6374843"><ele>717.0</ele><time>2026-04-09T10:06:09.18Z</time></trkpt><trkpt lat="42.6978881" lon="13.6374599"><ele>717.0</ele><time>2026-04-09T10:06:11.177Z</time></trkpt><trkpt lat="42.6979804" lon="13.6374472"><ele>717.0</ele><time>2026-04-09T10:06:13.182Z</time></trkpt><trkpt lat="42.6980803" lon="13.6374128"><ele>717.0</ele><time>2026-04-09T10:06:15.178Z</time></trkpt><trkpt lat="42.6981746" lon="13.6373409"><ele>717.0</ele><time>2026-04-09T10:06:17.171Z</time></trkpt><trkpt lat="42.698275" lon="13.6372352"><ele>717.0</ele><time>2026-04-09T10:06:19.185Z</time></trkpt><trkpt lat="42.6983931" lon="13.6372035"><ele>717.0</ele><time>2026-04-09T10:06:21.186Z</time></trkpt><trkpt lat="42.6984648" lon="13.6372333"><ele>717.0</ele><time>2026-04-09T10:06:22.171Z</time></trkpt><trkpt lat="42.6985524" lon="13.6372622"><ele>717.0</ele><time>2026-04-09T10:06:23.17Z</time></trkpt><trkpt lat="42.6986474" lon="13.6372987"><ele>717.0</ele><time>2026-04-09T10:06:24.181Z</time></trkpt><trkpt lat="42.6987372" lon="13.6373298"><ele>717.0</ele><time>2026-04-09T10:06:25.175Z</time></trkpt><trkpt lat="42.6988177" lon="13.6373481"><ele>717.0</ele><time>2026-04-09T10:06:26.189Z</time></trkpt><trkpt lat="42.6988931" lon="13.6373535"><ele>717.0</ele><time>2026-04-09T10:06:27.182Z</time></trkpt><trkpt lat="42.6989596" lon="13.6373314"><ele>717.0</ele><time>2026-04-09T10:06:28.187Z</time></trkpt><trkpt lat="42.69903" lon="13.6373077"><ele>717.0</ele><time>2026-04-09T10:06:29.18Z</time></trkpt><trkpt lat="42.6991231" lon="13.6372606"><ele>717.0</ele><time>2026-04-09T10:06:31.18Z</time></trkpt><trkpt lat="42.6991089" lon="13.6371656"><ele>717.0</ele><time>2026-04-09T10:06:57.167Z</time></trkpt><trkpt lat="42.6991417" lon="13.6370472"><ele>717.0</ele><time>2026-04-09T10:06:59.184Z</time></trkpt><trkpt lat="42.6991791" lon="13.6368802"><ele>717.8333333333334</ele><time>2026-04-09T10:07:01.171Z</time></trkpt><trkpt lat="42.6991993" lon="13.6367795"><ele>718.6666666666666</ele><time>2026-04-09T10:07:02.181Z</time></trkpt><trkpt lat="42.6992184" lon="13.6366857"><ele>719.5</ele><time>2026-04-09T10:07:03.173Z</time></trkpt><trkpt lat="42.6992372" lon="13.6365829"><ele>720.3333333333333</ele><time>2026-04-09T10:07:04.171Z</time></trkpt><trkpt lat="42.6992594" lon="13.6364672"><ele>721.1666666666666</ele><time>2026-04-09T10:07:05.177Z</time></trkpt><trkpt lat="42.6992864" lon="13.6363548"><ele>722.0</ele><time>2026-04-09T10:07:06.184Z</time></trkpt><trkpt lat="42.6993167" lon="13.6362553"><ele>722.0</ele><time>2026-04-09T10:07:07.204Z</time></trkpt><trkpt lat="42.6993638" lon="13.6361813"><ele>722.0</ele><time>2026-04-09T10:07:08.183Z</time></trkpt><trkpt lat="42.6994134" lon="13.6361209"><ele>722.0</ele><time>2026-04-09T10:07:09.175Z</time></trkpt><trkpt lat="42.6994621" lon="13.6360657"><ele>722.0</ele><time>2026-04-09T10:07:10.175Z</time></trkpt><trkpt lat="42.6995109" lon="13.6360114"><ele>722.0</ele><time>2026-04-09T10:07:11.183Z</time></trkpt><trkpt lat="42.6995626" lon="13.6359594"><ele>722.0</ele><time>2026-04-09T10:07:12.17Z</time></trkpt><trkpt lat="42.6996117" lon="13.6358981"><ele>722.0</ele><time>2026-04-09T10:07:13.183Z</time></trkpt><trkpt lat="42.6996548" lon="13.6358321"><ele>718.1666666666666</ele><time>2026-04-09T10:07:14.171Z</time></trkpt><trkpt lat="42.6997014" lon="13.6357612"><ele>714.3333333333333</ele><time>2026-04-09T10:07:15.174Z</time></trkpt><trkpt lat="42.6997586" lon="13.6356975"><ele>710.5</ele><time>2026-04-09T10:07:16.168Z</time></trkpt><trkpt lat="42.6998181" lon="13.6356341"><ele>706.6666666666666</ele><time>2026-04-09T10:07:17.179Z</time></trkpt><trkpt lat="42.6998658" lon="13.6355596"><ele>702.8333333333334</ele><time>2026-04-09T10:07:18.166Z</time></trkpt><trkpt lat="42.6999225" lon="13.635489"><ele>699.0</ele><time>2026-04-09T10:07:19.178Z</time></trkpt><trkpt lat="42.6999848" lon="13.6354099"><ele>699.0</ele><time>2026-04-09T10:07:20.18Z</time></trkpt><trkpt lat="42.7000374" lon="13.6353259"><ele>699.0</ele><time>2026-04-09T10:07:21.179Z</time></trkpt><trkpt lat="42.7000782" lon="13.6352323"><ele>699.0</ele><time>2026-04-09T10:07:22.17Z</time></trkpt><trkpt lat="42.7001177" lon="13.6351358"><ele>699.0</ele><time>2026-04-09T10:07:23.164Z</time></trkpt><trkpt lat="42.7001896" lon="13.6350252"><ele>699.0</ele><time>2026-04-09T10:07:25.162Z</time></trkpt><trkpt lat="42.7002519" lon="13.6349631"><ele>699.0</ele><time>2026-04-09T10:07:27.172Z</time></trkpt><trkpt lat="42.7003192" lon="13.6348254"><ele>699.0</ele><time>2026-04-09T10:07:29.173Z</time></trkpt><trkpt lat="42.700349" lon="13.6347213"><ele>699.0</ele><time>2026-04-09T10:07:30.175Z</time></trkpt><trkpt lat="42.7003968" lon="13.634638"><ele>699.0</ele><time>2026-04-09T10:07:31.172Z</time></trkpt><trkpt lat="42.7004584" lon="13.634591"><ele>699.0</ele><time>2026-04-09T10:07:32.164Z</time></trkpt><trkpt lat="42.700527" lon="13.6345832"><ele>699.0</ele><time>2026-04-09T10:07:33.174Z</time></trkpt><trkpt lat="42.700605" lon="13.6346367"><ele>699.0</ele><time>2026-04-09T10:07:34.173Z</time></trkpt><trkpt lat="42.7006871" lon="13.6347058"><ele>699.0</ele><time>2026-04-09T10:07:35.174Z</time></trkpt><trkpt lat="42.7007806" lon="13.6347789"><ele>699.0</ele><time>2026-04-09T10:07:36.179Z</time></trkpt><trkpt lat="42.7008728" lon="13.6348623"><ele>699.0</ele><time>2026-04-09T10:07:37.189Z</time></trkpt><trkpt lat="42.7009636" lon="13.6349476"><ele>699.0</ele><time>2026-04-09T10:07:38.169Z</time></trkpt><trkpt lat="42.7010467" lon="13.6350608"><ele>699.0</ele><time>2026-04-09T10:07:39.187Z</time></trkpt><trkpt lat="42.7011193" lon="13.6351908"><ele>698.2</ele><time>2026-04-09T10:07:40.183Z</time></trkpt><trkpt lat="42.7011952" lon="13.6353117"><ele>697.4000000000001</ele><time>2026-04-09T10:07:41.165Z</time></trkpt><trkpt lat="42.7012699" lon="13.6354104"><ele>696.6</ele><time>2026-04-09T10:07:42.174Z</time></trkpt><trkpt lat="42.7013461" lon="13.6355046"><ele>695.8</ele><time>2026-04-09T10:07:43.179Z</time></trkpt><trkpt lat="42.7014261" lon="13.6355435"><ele>695.0</ele><time>2026-04-09T10:07:44.177Z</time></trkpt><trkpt lat="42.7015346" lon="13.635514"><ele>695.0</ele><time>2026-04-09T10:07:45.17Z</time></trkpt><trkpt lat="42.7016456" lon="13.6354721"><ele>695.0</ele><time>2026-04-09T10:07:46.182Z</time></trkpt><trkpt lat="42.7017482" lon="13.635413"><ele>695.0</ele><time>2026-04-09T10:07:47.18Z</time></trkpt><trkpt lat="42.7018357" lon="13.63541"><ele>695.0</ele><time>2026-04-09T10:07:48.181Z</time></trkpt><trkpt lat="42.7019163" lon="13.6353784"><ele>695.0</ele><time>2026-04-09T10:07:49.167Z</time></trkpt><trkpt lat="42.7019839" lon="13.6353991"><ele>695.8333333333333</ele><time>2026-04-09T10:07:50.184Z</time></trkpt><trkpt lat="42.7020322" lon="13.6354629"><ele>696.6666666666666</ele><time>2026-04-09T10:07:51.18Z</time></trkpt><trkpt lat="42.7020609" lon="13.6355725"><ele>697.5</ele><time>2026-04-09T10:07:52.181Z</time></trkpt><trkpt lat="42.7020876" lon="13.635711"><ele>698.3333333333334</ele><time>2026-04-09T10:07:53.17Z</time></trkpt><trkpt lat="42.7021219" lon="13.6358334"><ele>699.1666666666667</ele><time>2026-04-09T10:07:54.166Z</time></trkpt><trkpt lat="42.702193" lon="13.6359082"><ele>700.0</ele><time>2026-04-09T10:07:55.174Z</time></trkpt><trkpt lat="42.7022952" lon="13.6359429"><ele>700.0</ele><time>2026-04-09T10:07:56.174Z</time></trkpt><trkpt lat="42.7024032" lon="13.6359564"><ele>700.0</ele><time>2026-04-09T10:07:57.177Z</time></trkpt><trkpt lat="42.7025094" lon="13.6359539"><ele>700.0</ele><time>2026-04-09T10:07:58.165Z</time></trkpt><trkpt lat="42.7026116" lon="13.635955"><ele>700.0</ele><time>2026-04-09T10:07:59.165Z</time></trkpt><trkpt lat="42.702723" lon="13.6360044"><ele>700.0</ele><time>2026-04-09T10:08:00.172Z</time></trkpt><trkpt lat="42.7028279" lon="13.6360813"><ele>697.5</ele><time>2026-04-09T10:08:01.173Z</time></trkpt><trkpt lat="42.7029279" lon="13.6361623"><ele>695.0</ele><time>2026-04-09T10:08:02.168Z</time></trkpt><trkpt lat="42.7030151" lon="13.6362902"><ele>692.5</ele><time>2026-04-09T10:08:03.181Z</time></trkpt><trkpt lat="42.7031003" lon="13.6364468"><ele>690.0</ele><time>2026-04-09T10:08:04.191Z</time></trkpt><trkpt lat="42.7031805" lon="13.6365949"><ele>690.0</ele><time>2026-04-09T10:08:05.17Z</time></trkpt><trkpt lat="42.7032605" lon="13.6367386"><ele>690.0</ele><time>2026-04-09T10:08:06.165Z</time></trkpt><trkpt lat="42.7033361" lon="13.6368687"><ele>690.0</ele><time>2026-04-09T10:08:07.162Z</time></trkpt><trkpt lat="42.7033963" lon="13.6369736"><ele>690.0</ele><time>2026-04-09T10:08:08.177Z</time></trkpt><trkpt lat="42.703441" lon="13.6370523"><ele>690.0</ele><time>2026-04-09T10:08:09.171Z</time></trkpt><trkpt lat="42.7035036" lon="13.6371228"><ele>686.5</ele><time>2026-04-09T10:08:11.169Z</time></trkpt><trkpt lat="42.7036019" lon="13.6369729"><ele>683.0</ele><time>2026-04-09T10:08:13.181Z</time></trkpt><trkpt lat="42.7036549" lon="13.6368478"><ele>679.5</ele><time>2026-04-09T10:08:14.181Z</time></trkpt><trkpt lat="42.7037147" lon="13.6366894"><ele>676.0</ele><time>2026-04-09T10:08:15.175Z</time></trkpt><trkpt lat="42.7037881" lon="13.6365689"><ele>676.0</ele><time>2026-04-09T10:08:16.189Z</time></trkpt><trkpt lat="42.703858" lon="13.6364443"><ele>676.0</ele><time>2026-04-09T10:08:17.186Z</time></trkpt><trkpt lat="42.7038762" lon="13.6363021"><ele>676.0</ele><time>2026-04-09T10:08:18.185Z</time></trkpt><trkpt lat="42.7039184" lon="13.6361741"><ele>676.0</ele><time>2026-04-09T10:08:19.183Z</time></trkpt><trkpt lat="42.7038669" lon="13.6360234"><ele>676.0</ele><time>2026-04-09T10:08:20.183Z</time></trkpt><trkpt lat="42.7038153" lon="13.635866"><ele>677.1999999999999</ele><time>2026-04-09T10:08:21.171Z</time></trkpt><trkpt lat="42.7037771" lon="13.6357196"><ele>678.4</ele><time>2026-04-09T10:08:22.176Z</time></trkpt><trkpt lat="42.703749" lon="13.6355875"><ele>679.6</ele><time>2026-04-09T10:08:23.198Z</time></trkpt><trkpt lat="42.7037232" lon="13.635459"><ele>680.8</ele><time>2026-04-09T10:08:24.162Z</time></trkpt><trkpt lat="42.7037092" lon="13.6353459"><ele>682.0</ele><time>2026-04-09T10:08:25.177Z</time></trkpt><trkpt lat="42.7037132" lon="13.6352213"><ele>685.0</ele><time>2026-04-09T10:08:26.169Z</time></trkpt><trkpt lat="42.7037399" lon="13.6351114"><ele>688.0</ele><time>2026-04-09T10:08:27.162Z</time></trkpt><trkpt lat="42.7037797" lon="13.6350254"><ele>691.0</ele><time>2026-04-09T10:08:28.17Z</time></trkpt><trkpt lat="42.7038356" lon="13.6349502"><ele>694.0</ele><time>2026-04-09T10:08:30.167Z</time></trkpt><trkpt lat="42.7037674" lon="13.6350861"><ele>697.0</ele><time>2026-04-09T10:08:35.192Z</time></trkpt><trkpt lat="42.7037342" lon="13.635177"><ele>700.0</ele><time>2026-04-09T10:08:36.187Z</time></trkpt><trkpt lat="42.7037037" lon="13.6352824"><ele>696.4</ele><time>2026-04-09T10:08:37.183Z</time></trkpt><trkpt lat="42.7036722" lon="13.6353887"><ele>692.8</ele><time>2026-04-09T10:08:38.173Z</time></trkpt><trkpt lat="42.7036757" lon="13.6355296"><ele>689.2</ele><time>2026-04-09T10:08:39.183Z</time></trkpt><trkpt lat="42.7036735" lon="13.6356702"><ele>685.6</ele><time>2026-04-09T10:08:40.17Z</time></trkpt><trkpt lat="42.7036916" lon="13.6358181"><ele>682.0</ele><time>2026-04-09T10:08:41.184Z</time></trkpt><trkpt lat="42.7037313" lon="13.6359683"><ele>682.0</ele><time>2026-04-09T10:08:42.175Z</time></trkpt><trkpt lat="42.7037659" lon="13.6361106"><ele>682.0</ele><time>2026-04-09T10:08:43.171Z</time></trkpt><trkpt lat="42.7037928" lon="13.636246"><ele>682.0</ele><time>2026-04-09T10:08:44.181Z</time></trkpt><trkpt lat="42.7038165" lon="13.6363821"><ele>682.0</ele><time>2026-04-09T10:08:45.177Z</time></trkpt><trkpt lat="42.7038257" lon="13.6364945"><ele>682.0</ele><time>2026-04-09T10:08:46.187Z</time></trkpt><trkpt lat="42.7038085" lon="13.6365968"><ele>681.0</ele><time>2026-04-09T10:08:47.195Z</time></trkpt><trkpt lat="42.7037542" lon="13.6366796"><ele>680.0</ele><time>2026-04-09T10:08:48.182Z</time></trkpt><trkpt lat="42.7037056" lon="13.6367509"><ele>679.0</ele><time>2026-04-09T10:08:49.181Z</time></trkpt><trkpt lat="42.7036608" lon="13.6368228"><ele>678.0</ele><time>2026-04-09T10:08:51.183Z</time></trkpt><trkpt lat="42.7037304" lon="13.6367357"><ele>677.0</ele><time>2026-04-09T10:08:56.176Z</time></trkpt><trkpt lat="42.7038298" lon="13.6366212"><ele>676.0</ele><time>2026-04-09T10:08:58.174Z</time></trkpt><trkpt lat="42.7038837" lon="13.6365646"><ele>676.0</ele><time>2026-04-09T10:08:59.167Z</time></trkpt><trkpt lat="42.7039412" lon="13.6365253"><ele>676.0</ele><time>2026-04-09T10:09:00.17Z</time></trkpt><trkpt lat="42.7040002" lon="13.6364888"><ele>676.0</ele><time>2026-04-09T10:09:01.191Z</time></trkpt><trkpt lat="42.7040592" lon="13.6364373"><ele>676.0</ele><time>2026-04-09T10:09:02.178Z</time></trkpt><trkpt lat="42.7041164" lon="13.6363797"><ele>676.0</ele><time>2026-04-09T10:09:03.178Z</time></trkpt><trkpt lat="42.7041644" lon="13.6363126"><ele>676.0</ele><time>2026-04-09T10:09:04.183Z</time></trkpt><trkpt lat="42.7042132" lon="13.6362388"><ele>676.0</ele><time>2026-04-09T10:09:05.193Z</time></trkpt><trkpt lat="42.7042666" lon="13.6361693"><ele>677.1999999999999</ele><time>2026-04-09T10:09:06.167Z</time></trkpt><trkpt lat="42.7043214" lon="13.6361253"><ele>678.4</ele><time>2026-04-09T10:09:07.169Z</time></trkpt><trkpt lat="42.7043836" lon="13.6361034"><ele>679.6</ele><time>2026-04-09T10:09:08.172Z</time></trkpt><trkpt lat="42.7045093" lon="13.6360639"><ele>680.8</ele><time>2026-04-09T10:09:10.173Z</time></trkpt><trkpt lat="42.7046129" lon="13.6359736"><ele>682.0</ele><time>2026-04-09T10:09:12.167Z</time></trkpt><trkpt lat="42.7046922" lon="13.6358782"><ele>678.8</ele><time>2026-04-09T10:09:14.177Z</time></trkpt><trkpt lat="42.7047887" lon="13.6358099"><ele>675.6</ele><time>2026-04-09T10:09:16.198Z</time></trkpt><trkpt lat="42.7048808" lon="13.6357378"><ele>672.4</ele><time>2026-04-09T10:09:18.169Z</time></trkpt><trkpt lat="42.7049701" lon="13.6356264"><ele>669.1999999999999</ele><time>2026-04-09T10:09:20.163Z</time></trkpt><trkpt lat="42.7050209" lon="13.6355539"><ele>666.0</ele><time>2026-04-09T10:09:21.182Z</time></trkpt><trkpt lat="42.7050726" lon="13.63548"><ele>666.0</ele><time>2026-04-09T10:09:22.175Z</time></trkpt><trkpt lat="42.7051663" lon="13.6353792"><ele>666.0</ele><time>2026-04-09T10:09:24.186Z</time></trkpt><trkpt lat="42.7052956" lon="13.6353467"><ele>666.0</ele><time>2026-04-09T10:09:26.186Z</time></trkpt><trkpt lat="42.7053687" lon="13.6353494"><ele>666.0</ele><time>2026-04-09T10:09:27.184Z</time></trkpt><trkpt lat="42.7054387" lon="13.6353398"><ele>666.0</ele><time>2026-04-09T10:09:28.185Z</time></trkpt><trkpt lat="42.7055059" lon="13.6353255"><ele>666.4</ele><time>2026-04-09T10:09:29.171Z</time></trkpt><trkpt lat="42.7055681" lon="13.6353019"><ele>666.8</ele><time>2026-04-09T10:09:30.176Z</time></trkpt><trkpt lat="42.7056241" lon="13.6352492"><ele>667.1999999999999</ele><time>2026-04-09T10:09:31.172Z</time></trkpt><trkpt lat="42.7057234" lon="13.6351428"><ele>667.5999999999999</ele><time>2026-04-09T10:09:33.169Z</time></trkpt><trkpt lat="42.7058245" lon="13.6350856"><ele>668.0</ele><time>2026-04-09T10:09:35.171Z</time></trkpt><trkpt lat="42.7059292" lon="13.6351067"><ele>668.0</ele><time>2026-04-09T10:09:37.17Z</time></trkpt><trkpt lat="42.7060198" lon="13.635166"><ele>668.0</ele><time>2026-04-09T10:09:39.164Z</time></trkpt><trkpt lat="42.7061394" lon="13.6351604"><ele>668.0</ele><time>2026-04-09T10:09:41.179Z</time></trkpt><trkpt lat="42.7062041" lon="13.635165"><ele>668.0</ele><time>2026-04-09T10:09:42.166Z</time></trkpt><trkpt lat="42.7062711" lon="13.6351837"><ele>668.0</ele><time>2026-04-09T10:09:43.171Z</time></trkpt><trkpt lat="42.7063365" lon="13.635209"><ele>668.0</ele><time>2026-04-09T10:09:44.176Z</time></trkpt><trkpt lat="42.7064051" lon="13.6352479"><ele>665.8</ele><time>2026-04-09T10:09:45.182Z</time></trkpt><trkpt lat="42.7064706" lon="13.6352786"><ele>663.5999999999999</ele><time>2026-04-09T10:09:46.175Z</time></trkpt><trkpt lat="42.7065759" lon="13.6353046"><ele>661.4000000000001</ele><time>2026-04-09T10:09:48.181Z</time></trkpt><trkpt lat="42.7066722" lon="13.6352862"><ele>659.2</ele><time>2026-04-09T10:09:50.189Z</time></trkpt><trkpt lat="42.7067655" lon="13.6352542"><ele>657.0</ele><time>2026-04-09T10:09:52.18Z</time></trkpt><trkpt lat="42.7068486" lon="13.6352084"><ele>654.4285714285714</ele><time>2026-04-09T10:09:54.176Z</time></trkpt><trkpt lat="42.7069139" lon="13.635177"><ele>651.8571428571429</ele><time>2026-04-09T10:09:55.162Z</time></trkpt><trkpt lat="42.7069748" lon="13.6351467"><ele>649.2857142857143</ele><time>2026-04-09T10:09:56.181Z</time></trkpt><trkpt lat="42.7070466" lon="13.6351073"><ele>646.7142857142858</ele><time>2026-04-09T10:09:57.174Z</time></trkpt><trkpt lat="42.7071099" lon="13.6350764"><ele>644.1428571428571</ele><time>2026-04-09T10:09:58.171Z</time></trkpt><trkpt lat="42.7071729" lon="13.635051"><ele>641.5714285714287</ele><time>2026-04-09T10:09:59.172Z</time></trkpt><trkpt lat="42.7072352" lon="13.6350255"><ele>639.0</ele><time>2026-04-09T10:10:00.163Z</time></trkpt><trkpt lat="42.7072975" lon="13.6350055"><ele>639.0</ele><time>2026-04-09T10:10:01.165Z</time></trkpt><trkpt lat="42.7073856" lon="13.6350018"><ele>639.0</ele><time>2026-04-09T10:10:03.175Z</time></trkpt><trkpt lat="42.7074508" lon="13.6349819"><ele>639.0</ele><time>2026-04-09T10:10:05.175Z</time></trkpt><trkpt lat="42.7075096" lon="13.6349026"><ele>639.0</ele><time>2026-04-09T10:10:07.174Z</time></trkpt><trkpt lat="42.7075889" lon="13.6347581"><ele>639.0</ele><time>2026-04-09T10:10:09.172Z</time></trkpt><trkpt lat="42.7076254" lon="13.6346809"><ele>639.0</ele><time>2026-04-09T10:10:10.168Z</time></trkpt><trkpt lat="42.7076688" lon="13.6346071"><ele>639.0</ele><time>2026-04-09T10:10:11.172Z</time></trkpt><trkpt lat="42.7077185" lon="13.6345319"><ele>639.0</ele><time>2026-04-09T10:10:12.175Z</time></trkpt><trkpt lat="42.7077661" lon="13.6344599"><ele>639.0</ele><time>2026-04-09T10:10:13.17Z</time></trkpt><trkpt lat="42.7078091" lon="13.6343913"><ele>639.0</ele><time>2026-04-09T10:10:14.168Z</time></trkpt><trkpt lat="42.7078738" lon="13.6342725"><ele>639.0</ele><time>2026-04-09T10:10:16.172Z</time></trkpt><trkpt lat="42.7079368" lon="13.6341373"><ele>639.0</ele><time>2026-04-09T10:10:18.178Z</time></trkpt><trkpt lat="42.7079767" lon="13.6340489"><ele>636.8333333333334</ele><time>2026-04-09T10:10:19.163Z</time></trkpt><trkpt lat="42.7080178" lon="13.633962"><ele>634.6666666666666</ele><time>2026-04-09T10:10:20.174Z</time></trkpt><trkpt lat="42.7080594" lon="13.6338816"><ele>632.5</ele><time>2026-04-09T10:10:21.182Z</time></trkpt><trkpt lat="42.7081019" lon="13.6337981"><ele>630.3333333333333</ele><time>2026-04-09T10:10:22.17Z</time></trkpt><trkpt lat="42.7081434" lon="13.633727"><ele>628.1666666666666</ele><time>2026-04-09T10:10:23.176Z</time></trkpt><trkpt lat="42.7082029" lon="13.6336041"><ele>626.0</ele><time>2026-04-09T10:10:25.169Z</time></trkpt><trkpt lat="42.7082424" lon="13.6334726"><ele>626.0</ele><time>2026-04-09T10:10:27.168Z</time></trkpt><trkpt lat="42.7082592" lon="13.6333649"><ele>626.0</ele><time>2026-04-09T10:10:29.168Z</time></trkpt><trkpt lat="42.7083144" lon="13.6333039"><ele>626.0</ele><time>2026-04-09T10:10:31.178Z</time></trkpt><trkpt lat="42.7083872" lon="13.6332576"><ele>626.0</ele><time>2026-04-09T10:10:33.189Z</time></trkpt><trkpt lat="42.7084918" lon="13.6332296"><ele>626.0</ele><time>2026-04-09T10:10:35.173Z</time></trkpt><trkpt lat="42.7085568" lon="13.6332255"><ele>626.0</ele><time>2026-04-09T10:10:36.18Z</time></trkpt><trkpt lat="42.7086285" lon="13.6332257"><ele>625.4285714285714</ele><time>2026-04-09T10:10:37.177Z</time></trkpt><trkpt lat="42.7086947" lon="13.6332372"><ele>624.8571428571429</ele><time>2026-04-09T10:10:38.168Z</time></trkpt><trkpt lat="42.7087801" lon="13.6332471"><ele>624.2857142857142</ele><time>2026-04-09T10:10:40.181Z</time></trkpt><trkpt lat="42.7088212" lon="13.6331805"><ele>623.7142857142858</ele><time>2026-04-09T10:10:42.174Z</time></trkpt><trkpt lat="42.7088512" lon="13.6330918"><ele>623.1428571428572</ele><time>2026-04-09T10:10:44.165Z</time></trkpt><trkpt lat="42.7089006" lon="13.6330057"><ele>622.5714285714286</ele><time>2026-04-09T10:10:46.176Z</time></trkpt><trkpt lat="42.708911" lon="13.6329039"><ele>622.0</ele><time>2026-04-09T10:11:39.174Z</time></trkpt><trkpt lat="42.7089331" lon="13.6328066"><ele>622.6666666666667</ele><time>2026-04-09T10:11:41.173Z</time></trkpt><trkpt lat="42.7089283" lon="13.6327162"><ele>623.3333333333334</ele><time>2026-04-09T10:11:43.173Z</time></trkpt><trkpt lat="42.7089055" lon="13.6326284"><ele>624.0</ele><time>2026-04-09T10:11:45.193Z</time></trkpt><trkpt lat="42.7088454" lon="13.6325899"><ele>624.6666666666666</ele><time>2026-04-09T10:11:49.17Z</time></trkpt><trkpt lat="42.7087672" lon="13.6325227"><ele>625.3333333333333</ele><time>2026-04-09T10:11:52.174Z</time></trkpt><trkpt lat="42.70873" lon="13.6323888"><ele>626.0</ele><time>2026-04-09T10:11:54.182Z</time></trkpt><trkpt lat="42.7086908" lon="13.6322619"><ele>626.0</ele><time>2026-04-09T10:11:56.18Z</time></trkpt><trkpt lat="42.7086578" lon="13.6321737"><ele>626.0</ele><time>2026-04-09T10:11:58.18Z</time></trkpt><trkpt lat="42.7086246" lon="13.6320692"><ele>626.0</ele><time>2026-04-09T10:12:01.184Z</time></trkpt><trkpt lat="42.708599" lon="13.6319893"><ele>626.0</ele><time>2026-04-09T10:12:03.182Z</time></trkpt><trkpt lat="42.7085415" lon="13.6318938"><ele>626.0</ele><time>2026-04-09T10:12:05.178Z</time></trkpt><trkpt lat="42.7084798" lon="13.6318024"><ele>626.0</ele><time>2026-04-09T10:12:07.179Z</time></trkpt><trkpt lat="42.7084372" lon="13.6317053"><ele>629.1666666666666</ele><time>2026-04-09T10:12:09.171Z</time></trkpt><trkpt lat="42.7083961" lon="13.6316139"><ele>632.3333333333333</ele><time>2026-04-09T10:12:12.174Z</time></trkpt><trkpt lat="42.7083531" lon="13.6315174"><ele>635.5</ele><time>2026-04-09T10:12:15.167Z</time></trkpt><trkpt lat="42.7083948" lon="13.6314352"><ele>638.6666666666666</ele><time>2026-04-09T10:12:19.173Z</time></trkpt><trkpt lat="42.708467" lon="13.63139"><ele>641.8333333333334</ele><time>2026-04-09T10:12:21.164Z</time></trkpt><trkpt lat="42.7085228" lon="13.6313257"><ele>645.0</ele><time>2026-04-09T10:12:23.175Z</time></trkpt><trkpt lat="42.7085542" lon="13.6311842"><ele>645.3333333333334</ele><time>2026-04-09T10:12:25.179Z</time></trkpt><trkpt lat="42.7086259" lon="13.63106"><ele>645.6666666666666</ele><time>2026-04-09T10:12:27.181Z</time></trkpt><trkpt lat="42.7086701" lon="13.6309649"><ele>646.0</ele><time>2026-04-09T10:12:29.181Z</time></trkpt><trkpt lat="42.7086779" lon="13.6308639"><ele>646.3333333333333</ele><time>2026-04-09T10:12:32.178Z</time></trkpt><trkpt lat="42.708634" lon="13.6307775"><ele>646.6666666666666</ele><time>2026-04-09T10:12:34.163Z</time></trkpt><trkpt lat="42.7085654" lon="13.6307898"><ele>647.0</ele><time>2026-04-09T10:12:36.168Z</time></trkpt><trkpt lat="42.7084875" lon="13.6307888"><ele>647.0</ele><time>2026-04-09T10:12:38.189Z</time></trkpt><trkpt lat="42.708432" lon="13.6307468"><ele>647.0</ele><time>2026-04-09T10:12:40.177Z</time></trkpt><trkpt lat="42.7084158" lon="13.6306466"><ele>647.0</ele><time>2026-04-09T10:12:43.178Z</time></trkpt><trkpt lat="42.708448" lon="13.6305207"><ele>647.0</ele><time>2026-04-09T10:12:45.168Z</time></trkpt><trkpt lat="42.7084913" lon="13.6304011"><ele>647.0</ele><time>2026-04-09T10:12:47.171Z</time></trkpt><trkpt lat="42.7084911" lon="13.6302991"><ele>647.0</ele><time>2026-04-09T10:12:49.178Z</time></trkpt><trkpt lat="42.7084655" lon="13.6301893"><ele>647.0</ele><time>2026-04-09T10:12:51.177Z</time></trkpt><trkpt lat="42.7084368" lon="13.6301108"><ele>647.0</ele><time>2026-04-09T10:12:53.175Z</time></trkpt><trkpt lat="42.7083641" lon="13.6300751"><ele>647.0</ele><time>2026-04-09T10:12:55.173Z</time></trkpt><trkpt lat="42.7082982" lon="13.6300381"><ele>647.0</ele><time>2026-04-09T10:12:57.171Z</time></trkpt><trkpt lat="42.708253" lon="13.629939"><ele>647.0</ele><time>2026-04-09T10:12:59.178Z</time></trkpt><trkpt lat="42.7082222" lon="13.6298324"><ele>647.0</ele><time>2026-04-09T10:13:01.163Z</time></trkpt><trkpt lat="42.7081612" lon="13.6297891"><ele>647.0</ele><time>2026-04-09T10:13:03.16Z</time></trkpt><trkpt lat="42.7080751" lon="13.6297305"><ele>647.0</ele><time>2026-04-09T10:13:05.172Z</time></trkpt><trkpt lat="42.7080225" lon="13.6296177"><ele>647.0</ele><time>2026-04-09T10:13:07.16Z</time></trkpt><trkpt lat="42.7079835" lon="13.629482"><ele>647.0</ele><time>2026-04-09T10:13:09.17Z</time></trkpt><trkpt lat="42.7079749" lon="13.6293356"><ele>647.0</ele><time>2026-04-09T10:13:11.168Z</time></trkpt><trkpt lat="42.7080485" lon="13.6292671"><ele>646.8</ele><time>2026-04-09T10:13:14.171Z</time></trkpt><trkpt lat="42.7081263" lon="13.6291824"><ele>646.6</ele><time>2026-04-09T10:13:28.196Z</time></trkpt><trkpt lat="42.7081874" lon="13.6290973"><ele>646.4</ele><time>2026-04-09T10:13:30.181Z</time></trkpt><trkpt lat="42.7082265" lon="13.6289703"><ele>646.1999999999999</ele><time>2026-04-09T10:13:32.173Z</time></trkpt><trkpt lat="42.7082518" lon="13.6288576"><ele>646.0</ele><time>2026-04-09T10:13:34.174Z</time></trkpt><trkpt lat="42.708311" lon="13.6287857"><ele>646.0</ele><time>2026-04-09T10:13:36.178Z</time></trkpt><trkpt lat="42.7083837" lon="13.6287275"><ele>646.0</ele><time>2026-04-09T10:13:38.167Z</time></trkpt><trkpt lat="42.70846" lon="13.6287"><ele>646.0</ele><time>2026-04-09T10:13:40.171Z</time></trkpt><trkpt lat="42.7085287" lon="13.6286869"><ele>646.0</ele><time>2026-04-09T10:13:58.182Z</time></trkpt><trkpt lat="42.7085643" lon="13.6287789"><ele>646.0</ele><time>2026-04-09T10:14:00.181Z</time></trkpt><trkpt lat="42.7086088" lon="13.6289059"><ele>646.0</ele><time>2026-04-09T10:14:02.172Z</time></trkpt><trkpt lat="42.7086813" lon="13.6290368"><ele>647.3333333333334</ele><time>2026-04-09T10:14:04.171Z</time></trkpt><trkpt lat="42.7087231" lon="13.6291238"><ele>648.6666666666667</ele><time>2026-04-09T10:14:06.178Z</time></trkpt><trkpt lat="42.7087735" lon="13.6292339"><ele>650.0</ele><time>2026-04-09T10:17:15.179Z</time></trkpt><trkpt lat="42.7088232" lon="13.6293065"><ele>651.3333333333334</ele><time>2026-04-09T10:17:16.186Z</time></trkpt><trkpt lat="42.7088664" lon="13.6294149"><ele>652.6666666666666</ele><time>2026-04-09T10:17:17.191Z</time></trkpt><trkpt lat="42.7089019" lon="13.6295469"><ele>654.0</ele><time>2026-04-09T10:17:18.181Z</time></trkpt><trkpt lat="42.7089338" lon="13.6296856"><ele>654.0</ele><time>2026-04-09T10:17:19.189Z</time></trkpt><trkpt lat="42.708967" lon="13.6298109"><ele>654.0</ele><time>2026-04-09T10:17:20.177Z</time></trkpt><trkpt lat="42.7090086" lon="13.6299338"><ele>654.0</ele><time>2026-04-09T10:17:21.179Z</time></trkpt><trkpt lat="42.7090676" lon="13.6300326"><ele>654.0</ele><time>2026-04-09T10:17:22.18Z</time></trkpt><trkpt lat="42.7091215" lon="13.630095"><ele>654.0</ele><time>2026-04-09T10:17:23.181Z</time></trkpt><trkpt lat="42.7091598" lon="13.6302"><ele>654.0</ele><time>2026-04-09T10:17:25.174Z</time></trkpt><trkpt lat="42.7091185" lon="13.6303344"><ele>652.0</ele><time>2026-04-09T10:17:27.188Z</time></trkpt><trkpt lat="42.7090812" lon="13.6304709"><ele>650.0</ele><time>2026-04-09T10:17:29.191Z</time></trkpt><trkpt lat="42.7091235" lon="13.6306029"><ele>648.0</ele><time>2026-04-09T10:17:31.171Z</time></trkpt><trkpt lat="42.7091547" lon="13.6306851"><ele>646.0</ele><time>2026-04-09T10:17:32.188Z</time></trkpt><trkpt lat="42.7091846" lon="13.6307711"><ele>644.0</ele><time>2026-04-09T10:17:33.2Z</time></trkpt><trkpt lat="42.7092106" lon="13.6308648"><ele>642.0</ele><time>2026-04-09T10:17:34.174Z</time></trkpt><trkpt lat="42.7092365" lon="13.6309675"><ele>642.0</ele><time>2026-04-09T10:17:35.208Z</time></trkpt><trkpt lat="42.7092604" lon="13.6310729"><ele>642.0</ele><time>2026-04-09T10:17:36.182Z</time></trkpt><trkpt lat="42.7092809" lon="13.6311745"><ele>642.0</ele><time>2026-04-09T10:17:37.189Z</time></trkpt><trkpt lat="42.7093202" lon="13.6313002"><ele>642.0</ele><time>2026-04-09T10:17:39.179Z</time></trkpt><trkpt lat="42.7093723" lon="13.6313506"><ele>642.0</ele><time>2026-04-09T10:17:41.193Z</time></trkpt><trkpt lat="42.7094679" lon="13.6313167"><ele>642.0</ele><time>2026-04-09T10:17:44.175Z</time></trkpt><trkpt lat="42.7095727" lon="13.6313857"><ele>645.8</ele><time>2026-04-09T10:17:46.175Z</time></trkpt><trkpt lat="42.7096708" lon="13.631491"><ele>649.6</ele><time>2026-04-09T10:17:48.184Z</time></trkpt><trkpt lat="42.7097294" lon="13.6315662"><ele>653.4</ele><time>2026-04-09T10:17:49.176Z</time></trkpt><trkpt lat="42.7097881" lon="13.6316568"><ele>657.1999999999999</ele><time>2026-04-09T10:17:50.205Z</time></trkpt><trkpt lat="42.7098616" lon="13.6317628"><ele>661.0</ele><time>2026-04-09T10:17:51.173Z</time></trkpt><trkpt lat="42.7099464" lon="13.6318833"><ele>658.0</ele><time>2026-04-09T10:17:52.182Z</time></trkpt><trkpt lat="42.7100305" lon="13.631979"><ele>655.0</ele><time>2026-04-09T10:17:53.226Z</time></trkpt><trkpt lat="42.7101065" lon="13.6320535"><ele>652.0</ele><time>2026-04-09T10:17:54.189Z</time></trkpt><trkpt lat="42.7101632" lon="13.6321331"><ele>649.0</ele><time>2026-04-09T10:17:55.185Z</time></trkpt><trkpt lat="42.7102132" lon="13.6322196"><ele>646.0</ele><time>2026-04-09T10:17:56.186Z</time></trkpt><trkpt lat="42.7102384" lon="13.6323425"><ele>649.4</ele><time>2026-04-09T10:17:57.2Z</time></trkpt><trkpt lat="42.7102474" lon="13.6324921"><ele>652.8</ele><time>2026-04-09T10:17:58.177Z</time></trkpt><trkpt lat="42.7102552" lon="13.6326429"><ele>656.1999999999999</ele><time>2026-04-09T10:17:59.179Z</time></trkpt><trkpt lat="42.7102503" lon="13.6327818"><ele>659.5999999999999</ele><time>2026-04-09T10:18:00.194Z</time></trkpt><trkpt lat="42.7102447" lon="13.6328922"><ele>663.0</ele><time>2026-04-09T10:18:01.181Z</time></trkpt><trkpt lat="42.710243" lon="13.6330271"><ele>658.8333333333334</ele><time>2026-04-09T10:18:03.184Z</time></trkpt><trkpt lat="42.7102384" lon="13.6331582"><ele>654.6666666666666</ele><time>2026-04-09T10:18:05.178Z</time></trkpt><trkpt lat="42.7102371" lon="13.6332531"><ele>650.5</ele><time>2026-04-09T10:18:07.184Z</time></trkpt><trkpt lat="42.7101669" lon="13.6332078"><ele>646.3333333333333</ele><time>2026-04-09T10:18:12.186Z</time></trkpt><trkpt lat="42.7101346" lon="13.6331136"><ele>642.1666666666666</ele><time>2026-04-09T10:18:13.185Z</time></trkpt><trkpt lat="42.7100835" lon="13.6330168"><ele>638.0</ele><time>2026-04-09T10:18:14.18Z</time></trkpt><trkpt lat="42.7100186" lon="13.6329309"><ele>638.0</ele><time>2026-04-09T10:18:15.188Z</time></trkpt><trkpt lat="42.7099529" lon="13.6329099"><ele>638.0</ele><time>2026-04-09T10:18:16.17Z</time></trkpt><trkpt lat="42.7098616" lon="13.6329134"><ele>638.0</ele><time>2026-04-09T10:18:18.192Z</time></trkpt><trkpt lat="42.7098075" lon="13.6329896"><ele>638.0</ele><time>2026-04-09T10:19:03.184Z</time></trkpt><trkpt lat="42.7098268" lon="13.6331847"><ele>638.0</ele><time>2026-04-09T10:19:05.19Z</time></trkpt><trkpt lat="42.709869" lon="13.6333174"><ele>638.0</ele><time>2026-04-09T10:19:06.19Z</time></trkpt><trkpt lat="42.7099084" lon="13.6334449"><ele>638.0</ele><time>2026-04-09T10:19:07.178Z</time></trkpt><trkpt lat="42.7099457" lon="13.6335727"><ele>638.0</ele><time>2026-04-09T10:19:08.192Z</time></trkpt><trkpt lat="42.7099826" lon="13.6336932"><ele>638.0</ele><time>2026-04-09T10:19:09.206Z</time></trkpt><trkpt lat="42.7100065" lon="13.6338179"><ele>638.0</ele><time>2026-04-09T10:19:10.196Z</time></trkpt><trkpt lat="42.7100141" lon="13.6339606"><ele>637.25</ele><time>2026-04-09T10:19:11.192Z</time></trkpt><trkpt lat="42.7100211" lon="13.63411"><ele>636.5</ele><time>2026-04-09T10:19:12.178Z</time></trkpt><trkpt lat="42.7100267" lon="13.6342712"><ele>635.75</ele><time>2026-04-09T10:19:13.188Z</time></trkpt><trkpt lat="42.7100289" lon="13.6344439"><ele>635.0</ele><time>2026-04-09T10:19:14.2Z</time></trkpt><trkpt lat="42.7100361" lon="13.6346326"><ele>633.25</ele><time>2026-04-09T10:19:15.175Z</time></trkpt><trkpt lat="42.7100469" lon="13.6348339"><ele>631.5</ele><time>2026-04-09T10:19:16.179Z</time></trkpt><trkpt lat="42.7100697" lon="13.6350162"><ele>629.75</ele><time>2026-04-09T10:19:17.194Z</time></trkpt><trkpt lat="42.710098" lon="13.6351754"><ele>628.0</ele><time>2026-04-09T10:19:18.183Z</time></trkpt><trkpt lat="42.7101283" lon="13.6353278"><ele>630.5</ele><time>2026-04-09T10:19:19.19Z</time></trkpt><trkpt lat="42.7101639" lon="13.6354784"><ele>633.0</ele><time>2026-04-09T10:19:20.178Z</time></trkpt><trkpt lat="42.7102066" lon="13.6356329"><ele>635.5</ele><time>2026-04-09T10:19:21.185Z</time></trkpt><trkpt lat="42.710259" lon="13.6357947"><ele>638.0</ele><time>2026-04-09T10:19:22.189Z</time></trkpt><trkpt lat="42.7103203" lon="13.6359579"><ele>638.0</ele><time>2026-04-09T10:19:23.191Z</time></trkpt><trkpt lat="42.7103849" lon="13.6361255"><ele>638.0</ele><time>2026-04-09T10:19:24.179Z</time></trkpt><trkpt lat="42.710455" lon="13.6362906"><ele>638.0</ele><time>2026-04-09T10:19:25.189Z</time></trkpt><trkpt lat="42.7105264" lon="13.636458"><ele>638.0</ele><time>2026-04-09T10:19:26.19Z</time></trkpt><trkpt lat="42.7105838" lon="13.6366446"><ele>634.25</ele><time>2026-04-09T10:19:27.178Z</time></trkpt><trkpt lat="42.7106205" lon="13.6368388"><ele>630.5</ele><time>2026-04-09T10:19:28.185Z</time></trkpt><trkpt lat="42.7106398" lon="13.6370359"><ele>626.75</ele><time>2026-04-09T10:19:29.189Z</time></trkpt><trkpt lat="42.7106579" lon="13.6372347"><ele>623.0</ele><time>2026-04-09T10:19:30.172Z</time></trkpt><trkpt lat="42.7106893" lon="13.6374163"><ele>621.25</ele><time>2026-04-09T10:19:31.193Z</time></trkpt><trkpt lat="42.7107227" lon="13.6375928"><ele>619.5</ele><time>2026-04-09T10:19:32.185Z</time></trkpt><trkpt lat="42.7107667" lon="13.6377519"><ele>617.75</ele><time>2026-04-09T10:19:33.193Z</time></trkpt><trkpt lat="42.7107886" lon="13.6379039"><ele>616.0</ele><time>2026-04-09T10:19:34.179Z</time></trkpt><trkpt lat="42.7107666" lon="13.6380481"><ele>614.75</ele><time>2026-04-09T10:19:35.183Z</time></trkpt><trkpt lat="42.7106871" lon="13.6381878"><ele>613.5</ele><time>2026-04-09T10:19:36.186Z</time></trkpt><trkpt lat="42.7105893" lon="13.6383301"><ele>612.25</ele><time>2026-04-09T10:19:37.176Z</time></trkpt><trkpt lat="42.7104956" lon="13.6384956"><ele>611.0</ele><time>2026-04-09T10:19:38.179Z</time></trkpt><trkpt lat="42.7104002" lon="13.6386701"><ele>608.75</ele><time>2026-04-09T10:19:39.187Z</time></trkpt><trkpt lat="42.7103049" lon="13.6388311"><ele>606.5</ele><time>2026-04-09T10:19:40.184Z</time></trkpt><trkpt lat="42.7102155" lon="13.6389873"><ele>604.25</ele><time>2026-04-09T10:19:41.186Z</time></trkpt><trkpt lat="42.7101402" lon="13.6390918"><ele>602.0</ele><time>2026-04-09T10:19:42.182Z</time></trkpt><trkpt lat="42.7100683" lon="13.6391869"><ele>601.0</ele><time>2026-04-09T10:19:43.176Z</time></trkpt><trkpt lat="42.7099833" lon="13.6391893"><ele>600.0</ele><time>2026-04-09T10:19:44.186Z</time></trkpt><trkpt lat="42.7099065" lon="13.6391636"><ele>599.0</ele><time>2026-04-09T10:19:45.176Z</time></trkpt><trkpt lat="42.7098387" lon="13.6391291"><ele>598.0</ele><time>2026-04-09T10:19:46.189Z</time></trkpt><trkpt lat="42.7097766" lon="13.6390919"><ele>597.0</ele><time>2026-04-09T10:19:47.192Z</time></trkpt><trkpt lat="42.7097071" lon="13.6390517"><ele>596.0</ele><time>2026-04-09T10:19:48.175Z</time></trkpt><trkpt lat="42.7096404" lon="13.639005"><ele>596.0</ele><time>2026-04-09T10:19:49.184Z</time></trkpt><trkpt lat="42.7095752" lon="13.6389351"><ele>596.0</ele><time>2026-04-09T10:19:50.189Z</time></trkpt><trkpt lat="42.7095048" lon="13.6388611"><ele>596.0</ele><time>2026-04-09T10:19:51.178Z</time></trkpt><trkpt lat="42.7094575" lon="13.6387627"><ele>596.0</ele><time>2026-04-09T10:19:52.175Z</time></trkpt><trkpt lat="42.7094492" lon="13.6386553"><ele>596.0</ele><time>2026-04-09T10:19:53.178Z</time></trkpt><trkpt lat="42.7094497" lon="13.6385512"><ele>596.0</ele><time>2026-04-09T10:19:54.195Z</time></trkpt><trkpt lat="42.7094489" lon="13.6384204"><ele>596.0</ele><time>2026-04-09T10:19:56.185Z</time></trkpt><trkpt lat="42.7094974" lon="13.6385921"><ele>596.0</ele><time>2026-04-09T10:20:04.178Z</time></trkpt><trkpt lat="42.7095535" lon="13.6387499"><ele>596.0</ele><time>2026-04-09T10:20:05.198Z</time></trkpt><trkpt lat="42.7096244" lon="13.6389242"><ele>596.0</ele><time>2026-04-09T10:20:06.176Z</time></trkpt><trkpt lat="42.7097548" lon="13.6390507"><ele>596.0</ele><time>2026-04-09T10:20:07.181Z</time></trkpt><trkpt lat="42.7098772" lon="13.6391139"><ele>596.0</ele><time>2026-04-09T10:20:08.188Z</time></trkpt><trkpt lat="42.7100061" lon="13.6390993"><ele>596.0</ele><time>2026-04-09T10:20:09.188Z</time></trkpt><trkpt lat="42.7101225" lon="13.6390273"><ele>596.0</ele><time>2026-04-09T10:20:10.181Z</time></trkpt><trkpt lat="42.7102211" lon="13.638919"><ele>597.2</ele><time>2026-04-09T10:20:11.179Z</time></trkpt><trkpt lat="42.710275" lon="13.6387991"><ele>598.4000000000001</ele><time>2026-04-09T10:20:12.184Z</time></trkpt><trkpt lat="42.7103238" lon="13.6387185"><ele>599.6</ele><time>2026-04-09T10:20:13.179Z</time></trkpt><trkpt lat="42.710391" lon="13.6386679"><ele>600.8000000000001</ele><time>2026-04-09T10:20:15.172Z</time></trkpt><trkpt lat="42.7104615" lon="13.6387229"><ele>602.0</ele><time>2026-04-09T10:20:17.175Z</time></trkpt><trkpt lat="42.7104644" lon="13.6388898"><ele>602.0</ele><time>2026-04-09T10:20:19.174Z</time></trkpt><trkpt lat="42.7104465" lon="13.6390038"><ele>602.0</ele><time>2026-04-09T10:20:20.173Z</time></trkpt><trkpt lat="42.7104173" lon="13.6391279"><ele>602.0</ele><time>2026-04-09T10:20:21.184Z</time></trkpt><trkpt lat="42.710386" lon="13.6392744"><ele>602.0</ele><time>2026-04-09T10:20:22.181Z</time></trkpt><trkpt lat="42.7103554" lon="13.639423"><ele>602.0</ele><time>2026-04-09T10:20:23.186Z</time></trkpt><trkpt lat="42.7103343" lon="13.6395953"><ele>599.5</ele><time>2026-04-09T10:20:24.184Z</time></trkpt><trkpt lat="42.7103198" lon="13.6397588"><ele>597.0</ele><time>2026-04-09T10:20:25.187Z</time></trkpt><trkpt lat="42.7103289" lon="13.63991"><ele>594.5</ele><time>2026-04-09T10:20:26.192Z</time></trkpt><trkpt lat="42.7103465" lon="13.6400652"><ele>592.0</ele><time>2026-04-09T10:20:27.177Z</time></trkpt><trkpt lat="42.7103708" lon="13.6402183"><ele>590.5</ele><time>2026-04-09T10:20:28.193Z</time></trkpt><trkpt lat="42.7104062" lon="13.6403626"><ele>589.0</ele><time>2026-04-09T10:20:29.178Z</time></trkpt><trkpt lat="42.7104529" lon="13.6405211"><ele>587.5</ele><time>2026-04-09T10:20:30.178Z</time></trkpt><trkpt lat="42.7105257" lon="13.6406723"><ele>586.0</ele><time>2026-04-09T10:20:31.172Z</time></trkpt><trkpt lat="42.7106142" lon="13.6407829"><ele>586.0</ele><time>2026-04-09T10:20:32.176Z</time></trkpt><trkpt lat="42.7106751" lon="13.6409035"><ele>586.0</ele><time>2026-04-09T10:20:33.193Z</time></trkpt><trkpt lat="42.7107322" lon="13.6410355"><ele>586.0</ele><time>2026-04-09T10:20:34.175Z</time></trkpt><trkpt lat="42.7107697" lon="13.6411732"><ele>586.0</ele><time>2026-04-09T10:20:35.189Z</time></trkpt><trkpt lat="42.7108262" lon="13.6413173"><ele>586.0</ele><time>2026-04-09T10:20:36.174Z</time></trkpt><trkpt lat="42.7109023" lon="13.6414541"><ele>584.75</ele><time>2026-04-09T10:20:37.194Z</time></trkpt><trkpt lat="42.7109945" lon="13.6415828"><ele>583.5</ele><time>2026-04-09T10:20:38.186Z</time></trkpt><trkpt lat="42.7110901" lon="13.6417188"><ele>582.25</ele><time>2026-04-09T10:20:39.181Z</time></trkpt><trkpt lat="42.7111909" lon="13.6418816"><ele>581.0</ele><time>2026-04-09T10:20:40.209Z</time></trkpt><trkpt lat="42.7113067" lon="13.6420773"><ele>578.3333333333333</ele><time>2026-04-09T10:20:41.185Z</time></trkpt><trkpt lat="42.7114308" lon="13.6422877"><ele>575.6666666666666</ele><time>2026-04-09T10:20:42.186Z</time></trkpt><trkpt lat="42.7115497" lon="13.6424848"><ele>573.0</ele><time>2026-04-09T10:20:43.177Z</time></trkpt><trkpt lat="42.7116563" lon="13.6426565"><ele>572.5</ele><time>2026-04-09T10:20:44.195Z</time></trkpt><trkpt lat="42.7117479" lon="13.6428057"><ele>572.0</ele><time>2026-04-09T10:20:45.173Z</time></trkpt><trkpt lat="42.7118358" lon="13.6429542"><ele>571.5</ele><time>2026-04-09T10:20:46.175Z</time></trkpt><trkpt lat="42.7119099" lon="13.6430797"><ele>571.0</ele><time>2026-04-09T10:20:47.185Z</time></trkpt><trkpt lat="42.7119578" lon="13.643178"><ele>571.0</ele><time>2026-04-09T10:20:48.171Z</time></trkpt><trkpt lat="42.7119912" lon="13.643272"><ele>571.0</ele><time>2026-04-09T10:20:49.167Z</time></trkpt><trkpt lat="42.7120218" lon="13.6433545"><ele>571.0</ele><time>2026-04-09T10:20:50.185Z</time></trkpt><trkpt lat="42.7120419" lon="13.6434386"><ele>571.0</ele><time>2026-04-09T10:20:51.175Z</time></trkpt><trkpt lat="42.7120572" lon="13.6435355"><ele>571.0</ele><time>2026-04-09T10:20:52.17Z</time></trkpt><trkpt lat="42.712076" lon="13.6436482"><ele>571.0</ele><time>2026-04-09T10:20:53.172Z</time></trkpt><trkpt lat="42.7121017" lon="13.6437743"><ele>570.3333333333334</ele><time>2026-04-09T10:20:54.174Z</time></trkpt><trkpt lat="42.7121248" lon="13.6438845"><ele>569.6666666666667</ele><time>2026-04-09T10:20:55.178Z</time></trkpt><trkpt lat="42.712144" lon="13.6439837"><ele>569.0</ele><time>2026-04-09T10:20:56.174Z</time></trkpt><trkpt lat="42.7121305" lon="13.6441429"><ele>568.3333333333334</ele><time>2026-04-09T10:20:58.173Z</time></trkpt><trkpt lat="42.7120989" lon="13.6442471"><ele>567.6666666666666</ele><time>2026-04-09T10:20:59.167Z</time></trkpt><trkpt lat="42.712085" lon="13.6443666"><ele>567.0</ele><time>2026-04-09T10:21:00.17Z</time></trkpt><trkpt lat="42.7120722" lon="13.6444838"><ele>566.0</ele><time>2026-04-09T10:21:01.167Z</time></trkpt><trkpt lat="42.712071" lon="13.6445983"><ele>565.0</ele><time>2026-04-09T10:21:02.173Z</time></trkpt><trkpt lat="42.7120731" lon="13.6447271"><ele>564.0</ele><time>2026-04-09T10:21:03.173Z</time></trkpt><trkpt lat="42.7120807" lon="13.6448394"><ele>563.0</ele><time>2026-04-09T10:21:04.171Z</time></trkpt><trkpt lat="42.7120873" lon="13.6449478"><ele>562.0</ele><time>2026-04-09T10:21:05.169Z</time></trkpt><trkpt lat="42.712094" lon="13.6450561"><ele>561.0</ele><time>2026-04-09T10:21:06.166Z</time></trkpt><trkpt lat="42.7121118" lon="13.6451593"><ele>561.0</ele><time>2026-04-09T10:21:07.171Z</time></trkpt><trkpt lat="42.7121296" lon="13.6452637"><ele>561.0</ele><time>2026-04-09T10:21:08.179Z</time></trkpt><trkpt lat="42.7121478" lon="13.6453667"><ele>561.0</ele><time>2026-04-09T10:21:09.186Z</time></trkpt><trkpt lat="42.712164" lon="13.6454675"><ele>561.0</ele><time>2026-04-09T10:21:10.171Z</time></trkpt><trkpt lat="42.7121763" lon="13.645568"><ele>561.0</ele><time>2026-04-09T10:21:11.175Z</time></trkpt><trkpt lat="42.7121906" lon="13.6456782"><ele>561.0</ele><time>2026-04-09T10:21:12.182Z</time></trkpt><trkpt lat="42.7122062" lon="13.6457915"><ele>560.1666666666666</ele><time>2026-04-09T10:21:13.179Z</time></trkpt><trkpt lat="42.7122197" lon="13.6458994"><ele>559.3333333333334</ele><time>2026-04-09T10:21:14.181Z</time></trkpt><trkpt lat="42.7122328" lon="13.6460082"><ele>558.5</ele><time>2026-04-09T10:21:15.169Z</time></trkpt><trkpt lat="42.7122451" lon="13.6461165"><ele>557.6666666666667</ele><time>2026-04-09T10:21:16.183Z</time></trkpt><trkpt lat="42.7122584" lon="13.6462325"><ele>556.8333333333334</ele><time>2026-04-09T10:21:17.178Z</time></trkpt><trkpt lat="42.7122721" lon="13.6463664"><ele>556.0</ele><time>2026-04-09T10:21:18.181Z</time></trkpt><trkpt lat="42.7122853" lon="13.6465191"><ele>555.0</ele><time>2026-04-09T10:21:19.17Z</time></trkpt><trkpt lat="42.7122911" lon="13.6466917"><ele>554.0</ele><time>2026-04-09T10:21:20.185Z</time></trkpt><trkpt lat="42.7122868" lon="13.6468692"><ele>553.0</ele><time>2026-04-09T10:21:21.183Z</time></trkpt><trkpt lat="42.7122755" lon="13.6470551"><ele>552.0</ele><time>2026-04-09T10:21:22.173Z</time></trkpt><trkpt lat="42.712264" lon="13.6472406"><ele>551.25</ele><time>2026-04-09T10:21:23.189Z</time></trkpt><trkpt lat="42.7122515" lon="13.6474303"><ele>550.5</ele><time>2026-04-09T10:21:24.201Z</time></trkpt><trkpt lat="42.7122418" lon="13.6476116"><ele>549.75</ele><time>2026-04-09T10:21:25.198Z</time></trkpt><trkpt lat="42.7122329" lon="13.6477864"><ele>549.0</ele><time>2026-04-09T10:21:26.173Z</time></trkpt><trkpt lat="42.7122395" lon="13.6479412"><ele>548.0</ele><time>2026-04-09T10:21:27.173Z</time></trkpt><trkpt lat="42.7122587" lon="13.6480894"><ele>547.0</ele><time>2026-04-09T10:21:28.188Z</time></trkpt><trkpt lat="42.7122894" lon="13.6482342"><ele>546.0</ele><time>2026-04-09T10:21:29.187Z</time></trkpt><trkpt lat="42.7123259" lon="13.6483928"><ele>545.0</ele><time>2026-04-09T10:21:30.171Z</time></trkpt><trkpt lat="42.712382" lon="13.6485416"><ele>540.6666666666666</ele><time>2026-04-09T10:21:31.186Z</time></trkpt><trkpt lat="42.7124665" lon="13.6486895"><ele>536.3333333333334</ele><time>2026-04-09T10:21:32.171Z</time></trkpt><trkpt lat="42.7125845" lon="13.6488283"><ele>532.0</ele><time>2026-04-09T10:21:33.173Z</time></trkpt><trkpt lat="42.7127024" lon="13.6489799"><ele>532.25</ele><time>2026-04-09T10:21:34.18Z</time></trkpt><trkpt lat="42.712804" lon="13.6491368"><ele>532.5</ele><time>2026-04-09T10:21:35.177Z</time></trkpt><trkpt lat="42.7128734" lon="13.6493039"><ele>532.75</ele><time>2026-04-09T10:21:36.186Z</time></trkpt><trkpt lat="42.7129339" lon="13.6494728"><ele>533.0</ele><time>2026-04-09T10:21:37.179Z</time></trkpt><trkpt lat="42.7129967" lon="13.6496156"><ele>533.0</ele><time>2026-04-09T10:21:38.172Z</time></trkpt><trkpt lat="42.7130735" lon="13.6497272"><ele>533.0</ele><time>2026-04-09T10:21:39.17Z</time></trkpt><trkpt lat="42.7131538" lon="13.6498302"><ele>533.0</ele><time>2026-04-09T10:21:40.187Z</time></trkpt><trkpt lat="42.7132512" lon="13.6499148"><ele>533.0</ele><time>2026-04-09T10:21:41.188Z</time></trkpt><trkpt lat="42.7133844" lon="13.649982"><ele>533.0</ele><time>2026-04-09T10:21:42.184Z</time></trkpt><trkpt lat="42.7135231" lon="13.6500441"><ele>533.0</ele><time>2026-04-09T10:21:43.167Z</time></trkpt><trkpt lat="42.7136622" lon="13.6501075"><ele>533.0</ele><time>2026-04-09T10:21:44.182Z</time></trkpt><trkpt lat="42.7138002" lon="13.6501705"><ele>533.0</ele><time>2026-04-09T10:21:45.173Z</time></trkpt><trkpt lat="42.7139454" lon="13.6502357"><ele>532.6666666666666</ele><time>2026-04-09T10:21:46.173Z</time></trkpt><trkpt lat="42.7140943" lon="13.6503042"><ele>532.3333333333334</ele><time>2026-04-09T10:21:47.174Z</time></trkpt><trkpt lat="42.7142438" lon="13.6503733"><ele>532.0</ele><time>2026-04-09T10:21:48.162Z</time></trkpt><trkpt lat="42.7143951" lon="13.6504448"><ele>533.0</ele><time>2026-04-09T10:21:49.173Z</time></trkpt><trkpt lat="42.7145501" lon="13.6505166"><ele>534.0</ele><time>2026-04-09T10:21:50.175Z</time></trkpt><trkpt lat="42.7147045" lon="13.6505898"><ele>535.0</ele><time>2026-04-09T10:21:51.172Z</time></trkpt><trkpt lat="42.7148594" lon="13.6506637"><ele>535.0</ele><time>2026-04-09T10:21:52.176Z</time></trkpt><trkpt lat="42.7150139" lon="13.6507394"><ele>535.0</ele><time>2026-04-09T10:21:53.17Z</time></trkpt><trkpt lat="42.715161" lon="13.6508114"><ele>535.0</ele><time>2026-04-09T10:21:54.177Z</time></trkpt><trkpt lat="42.7153031" lon="13.6508801"><ele>533.25</ele><time>2026-04-09T10:21:55.179Z</time></trkpt><trkpt lat="42.7154409" lon="13.6509433"><ele>531.5</ele><time>2026-04-09T10:21:56.176Z</time></trkpt><trkpt lat="42.7155748" lon="13.6509998"><ele>529.75</ele><time>2026-04-09T10:21:57.172Z</time></trkpt><trkpt lat="42.7157123" lon="13.6510504"><ele>528.0</ele><time>2026-04-09T10:21:58.174Z</time></trkpt><trkpt lat="42.7158432" lon="13.6510964"><ele>527.5</ele><time>2026-04-09T10:21:59.171Z</time></trkpt><trkpt lat="42.715982" lon="13.6511432"><ele>527.0</ele><time>2026-04-09T10:22:00.165Z</time></trkpt><trkpt lat="42.7161162" lon="13.6511961"><ele>526.5</ele><time>2026-04-09T10:22:01.181Z</time></trkpt><trkpt lat="42.7162467" lon="13.6512177"><ele>526.0</ele><time>2026-04-09T10:22:02.171Z</time></trkpt><trkpt lat="42.7163741" lon="13.6512402"><ele>525.0</ele><time>2026-04-09T10:22:03.173Z</time></trkpt><trkpt lat="42.7164884" lon="13.6512723"><ele>524.0</ele><time>2026-04-09T10:22:04.168Z</time></trkpt><trkpt lat="42.7165959" lon="13.6513251"><ele>523.0</ele><time>2026-04-09T10:22:05.162Z</time></trkpt><trkpt lat="42.7167005" lon="13.6514035"><ele>522.0</ele><time>2026-04-09T10:22:06.168Z</time></trkpt><trkpt lat="42.7167867" lon="13.6514852"><ele>522.0</ele><time>2026-04-09T10:22:07.162Z</time></trkpt><trkpt lat="42.7168682" lon="13.6515747"><ele>522.0</ele><time>2026-04-09T10:22:08.175Z</time></trkpt><trkpt lat="42.7169435" lon="13.6516639"><ele>522.0</ele><time>2026-04-09T10:22:09.171Z</time></trkpt><trkpt lat="42.717007" lon="13.6517537"><ele>522.0</ele><time>2026-04-09T10:22:10.164Z</time></trkpt><trkpt lat="42.7170773" lon="13.6518492"><ele>522.0</ele><time>2026-04-09T10:22:11.178Z</time></trkpt><trkpt lat="42.7171432" lon="13.6519694"><ele>519.75</ele><time>2026-04-09T10:22:12.174Z</time></trkpt><trkpt lat="42.7172016" lon="13.6521075"><ele>517.5</ele><time>2026-04-09T10:22:13.172Z</time></trkpt><trkpt lat="42.7172488" lon="13.6522574"><ele>515.25</ele><time>2026-04-09T10:22:14.171Z</time></trkpt><trkpt lat="42.7172788" lon="13.6524002"><ele>513.0</ele><time>2026-04-09T10:22:15.168Z</time></trkpt><trkpt lat="42.7173142" lon="13.652554"><ele>513.0</ele><time>2026-04-09T10:22:16.179Z</time></trkpt><trkpt lat="42.7173381" lon="13.6527234"><ele>513.0</ele><time>2026-04-09T10:22:17.169Z</time></trkpt><trkpt lat="42.7173498" lon="13.6528917"><ele>513.0</ele><time>2026-04-09T10:22:18.173Z</time></trkpt><trkpt lat="42.7173503" lon="13.6530646"><ele>513.0</ele><time>2026-04-09T10:22:19.168Z</time></trkpt><trkpt lat="42.717354" lon="13.6532282"><ele>513.0</ele><time>2026-04-09T10:22:20.182Z</time></trkpt><trkpt lat="42.7173449" lon="13.6533896"><ele>513.0</ele><time>2026-04-09T10:22:21.173Z</time></trkpt><trkpt lat="42.7173231" lon="13.6535419"><ele>513.0</ele><time>2026-04-09T10:22:22.178Z</time></trkpt><trkpt lat="42.717289" lon="13.6536989"><ele>513.0</ele><time>2026-04-09T10:22:23.177Z</time></trkpt><trkpt lat="42.7172506" lon="13.6538599"><ele>512.5</ele><time>2026-04-09T10:22:24.175Z</time></trkpt><trkpt lat="42.717217" lon="13.6540366"><ele>512.0</ele><time>2026-04-09T10:22:25.165Z</time></trkpt><trkpt lat="42.7171913" lon="13.6542186"><ele>511.5</ele><time>2026-04-09T10:22:26.168Z</time></trkpt><trkpt lat="42.71717" lon="13.6544018"><ele>511.0</ele><time>2026-04-09T10:22:27.173Z</time></trkpt><trkpt lat="42.7171526" lon="13.6545883"><ele>510.0</ele><time>2026-04-09T10:22:28.167Z</time></trkpt><trkpt lat="42.7171354" lon="13.6547729"><ele>509.0</ele><time>2026-04-09T10:22:29.172Z</time></trkpt><trkpt lat="42.7171178" lon="13.6549374"><ele>508.0</ele><time>2026-04-09T10:22:30.167Z</time></trkpt><trkpt lat="42.7170909" lon="13.6550829"><ele>507.0</ele><time>2026-04-09T10:22:31.178Z</time></trkpt><trkpt lat="42.7170707" lon="13.6552283"><ele>506.40000000000003</ele><time>2026-04-09T10:22:32.167Z</time></trkpt><trkpt lat="42.7170582" lon="13.6553668"><ele>505.80000000000007</ele><time>2026-04-09T10:22:33.187Z</time></trkpt><trkpt lat="42.7170502" lon="13.6555118"><ele>505.2</ele><time>2026-04-09T10:22:34.17Z</time></trkpt><trkpt lat="42.7170556" lon="13.6556309"><ele>504.6</ele><time>2026-04-09T10:22:35.176Z</time></trkpt><trkpt lat="42.7170543" lon="13.655744"><ele>504.0</ele><time>2026-04-09T10:22:36.172Z</time></trkpt><trkpt lat="42.717063" lon="13.6558561"><ele>504.0</ele><time>2026-04-09T10:22:37.169Z</time></trkpt><trkpt lat="42.7170704" lon="13.6559866"><ele>504.0</ele><time>2026-04-09T10:22:38.172Z</time></trkpt><trkpt lat="42.7170764" lon="13.6561309"><ele>504.0</ele><time>2026-04-09T10:22:39.165Z</time></trkpt><trkpt lat="42.7170853" lon="13.6562747"><ele>504.0</ele><time>2026-04-09T10:22:40.171Z</time></trkpt><trkpt lat="42.7170976" lon="13.656439"><ele>504.0</ele><time>2026-04-09T10:22:41.172Z</time></trkpt><trkpt lat="42.7171141" lon="13.6566105"><ele>502.75</ele><time>2026-04-09T10:22:42.182Z</time></trkpt><trkpt lat="42.7171307" lon="13.6567765"><ele>501.5</ele><time>2026-04-09T10:22:43.172Z</time></trkpt><trkpt lat="42.717146" lon="13.6569319"><ele>500.25</ele><time>2026-04-09T10:22:44.17Z</time></trkpt><trkpt lat="42.7171594" lon="13.6570879"><ele>499.0</ele><time>2026-04-09T10:22:45.172Z</time></trkpt><trkpt lat="42.7171749" lon="13.6572535"><ele>498.75</ele><time>2026-04-09T10:22:46.173Z</time></trkpt><trkpt lat="42.7171898" lon="13.6574271"><ele>498.5</ele><time>2026-04-09T10:22:47.165Z</time></trkpt><trkpt lat="42.7171985" lon="13.6576055"><ele>498.25</ele><time>2026-04-09T10:22:48.167Z</time></trkpt><trkpt lat="42.7172009" lon="13.6577784"><ele>498.0</ele><time>2026-04-09T10:22:49.165Z</time></trkpt><trkpt lat="42.7171896" lon="13.6579345"><ele>498.0</ele><time>2026-04-09T10:22:50.179Z</time></trkpt><trkpt lat="42.7171797" lon="13.6580702"><ele>497.99999999999994</ele><time>2026-04-09T10:22:51.173Z</time></trkpt><trkpt lat="42.7171529" lon="13.6581914"><ele>497.99999999999994</ele><time>2026-04-09T10:22:52.166Z</time></trkpt><trkpt lat="42.7171207" lon="13.658322"><ele>498.0</ele><time>2026-04-09T10:22:53.17Z</time></trkpt><trkpt lat="42.7170886" lon="13.6584428"><ele>498.0</ele><time>2026-04-09T10:22:54.179Z</time></trkpt><trkpt lat="42.7170588" lon="13.6585497"><ele>497.0</ele><time>2026-04-09T10:22:55.167Z</time></trkpt><trkpt lat="42.7170345" lon="13.6586602"><ele>496.0</ele><time>2026-04-09T10:22:56.179Z</time></trkpt><trkpt lat="42.7170325" lon="13.6588161"><ele>495.0</ele><time>2026-04-09T10:22:57.173Z</time></trkpt><trkpt lat="42.7170484" lon="13.6590044"><ele>494.0</ele><time>2026-04-09T10:22:58.172Z</time></trkpt><trkpt lat="42.717058" lon="13.6591962"><ele>493.99999999999994</ele><time>2026-04-09T10:22:59.171Z</time></trkpt><trkpt lat="42.7170658" lon="13.6593596"><ele>494.0</ele><time>2026-04-09T10:23:00.172Z</time></trkpt><trkpt lat="42.7170708" lon="13.6594885"><ele>494.0</ele><time>2026-04-09T10:23:01.173Z</time></trkpt><trkpt lat="42.7170871" lon="13.6595789"><ele>494.0</ele><time>2026-04-09T10:23:02.167Z</time></trkpt><trkpt lat="42.717111" lon="13.6596641"><ele>493.99999999999994</ele><time>2026-04-09T10:23:03.173Z</time></trkpt><trkpt lat="42.7171416" lon="13.6597475"><ele>494.0</ele><time>2026-04-09T10:23:04.177Z</time></trkpt><trkpt lat="42.7171869" lon="13.6598256"><ele>492.6</ele><time>2026-04-09T10:23:05.165Z</time></trkpt><trkpt lat="42.7172502" lon="13.659925"><ele>491.2</ele><time>2026-04-09T10:23:07.173Z</time></trkpt><trkpt lat="42.7173427" lon="13.659986"><ele>489.80000000000007</ele><time>2026-04-09T10:23:27.177Z</time></trkpt><trkpt lat="42.7174253" lon="13.6600467"><ele>488.40000000000003</ele><time>2026-04-09T10:23:28.173Z</time></trkpt><trkpt lat="42.7175174" lon="13.6600826"><ele>487.0</ele><time>2026-04-09T10:23:29.183Z</time></trkpt><trkpt lat="42.7176119" lon="13.6600899"><ele>487.0</ele><time>2026-04-09T10:23:30.166Z</time></trkpt><trkpt lat="42.7177057" lon="13.660108"><ele>487.00000000000006</ele><time>2026-04-09T10:23:31.175Z</time></trkpt><trkpt lat="42.7177984" lon="13.6601262"><ele>487.00000000000006</ele><time>2026-04-09T10:23:32.171Z</time></trkpt><trkpt lat="42.7179002" lon="13.6601422"><ele>487.0</ele><time>2026-04-09T10:23:33.177Z</time></trkpt><trkpt lat="42.7180199" lon="13.6601568"><ele>487.0</ele><time>2026-04-09T10:23:34.184Z</time></trkpt><trkpt lat="42.7181479" lon="13.6601712"><ele>486.6666666666667</ele><time>2026-04-09T10:23:35.17Z</time></trkpt><trkpt lat="42.7183027" lon="13.6601884"><ele>486.33333333333337</ele><time>2026-04-09T10:23:36.179Z</time></trkpt><trkpt lat="42.7184913" lon="13.6602036"><ele>486.0</ele><time>2026-04-09T10:23:37.183Z</time></trkpt><trkpt lat="42.7187108" lon="13.66023"><ele>484.5</ele><time>2026-04-09T10:23:38.181Z</time></trkpt><trkpt lat="42.7189581" lon="13.6602641"><ele>483.0</ele><time>2026-04-09T10:23:39.17Z</time></trkpt><trkpt lat="42.7192291" lon="13.6603122"><ele>484.0</ele><time>2026-04-09T10:23:40.183Z</time></trkpt><trkpt lat="42.7195198" lon="13.6603718"><ele>485.0</ele><time>2026-04-09T10:23:41.169Z</time></trkpt><trkpt lat="42.7198142" lon="13.6604477"><ele>485.0</ele><time>2026-04-09T10:23:42.178Z</time></trkpt><trkpt lat="42.7200657" lon="13.6605288"><ele>485.0</ele><time>2026-04-09T10:23:43.172Z</time></trkpt><trkpt lat="42.720305" lon="13.6606088"><ele>485.0</ele><time>2026-04-09T10:23:44.186Z</time></trkpt><trkpt lat="42.7205131" lon="13.660685"><ele>485.0</ele><time>2026-04-09T10:23:45.178Z</time></trkpt><trkpt lat="42.7207248" lon="13.6607561"><ele>485.0</ele><time>2026-04-09T10:23:46.172Z</time></trkpt><trkpt lat="42.720927" lon="13.6608254"><ele>485.3333333333333</ele><time>2026-04-09T10:23:47.164Z</time></trkpt><trkpt lat="42.7211106" lon="13.6608951"><ele>485.66666666666663</ele><time>2026-04-09T10:23:48.165Z</time></trkpt><trkpt lat="42.7212791" lon="13.660962"><ele>486.0</ele><time>2026-04-09T10:23:49.182Z</time></trkpt><trkpt lat="42.7214354" lon="13.6610311"><ele>486.0</ele><time>2026-04-09T10:23:50.171Z</time></trkpt><trkpt lat="42.7215812" lon="13.6610977"><ele>486.0</ele><time>2026-04-09T10:23:51.167Z</time></trkpt><trkpt lat="42.7217207" lon="13.6611709"><ele>486.0</ele><time>2026-04-09T10:23:52.167Z</time></trkpt><trkpt lat="42.7218555" lon="13.6612756"><ele>485.33333333333337</ele><time>2026-04-09T10:23:53.182Z</time></trkpt><trkpt lat="42.7219774" lon="13.661407"><ele>484.6666666666667</ele><time>2026-04-09T10:23:54.169Z</time></trkpt><trkpt lat="42.722102" lon="13.6615551"><ele>484.0</ele><time>2026-04-09T10:23:55.187Z</time></trkpt><trkpt lat="42.7222268" lon="13.6616866"><ele>484.0</ele><time>2026-04-09T10:23:56.181Z</time></trkpt><trkpt lat="42.7223478" lon="13.6618004"><ele>484.0</ele><time>2026-04-09T10:23:57.161Z</time></trkpt><trkpt lat="42.7224626" lon="13.661902"><ele>484.0</ele><time>2026-04-09T10:23:58.175Z</time></trkpt><trkpt lat="42.722571" lon="13.6619923"><ele>484.0</ele><time>2026-04-09T10:23:59.176Z</time></trkpt><trkpt lat="42.7226754" lon="13.6620642"><ele>482.4</ele><time>2026-04-09T10:24:00.176Z</time></trkpt><trkpt lat="42.7227789" lon="13.6621152"><ele>480.79999999999995</ele><time>2026-04-09T10:24:01.187Z</time></trkpt><trkpt lat="42.7228792" lon="13.6621578"><ele>479.20000000000005</ele><time>2026-04-09T10:24:02.177Z</time></trkpt><trkpt lat="42.7229769" lon="13.6621777"><ele>477.6</ele><time>2026-04-09T10:24:03.166Z</time></trkpt><trkpt lat="42.7230715" lon="13.6621972"><ele>476.0</ele><time>2026-04-09T10:24:04.183Z</time></trkpt><trkpt lat="42.7231765" lon="13.662214"><ele>476.0</ele><time>2026-04-09T10:24:05.171Z</time></trkpt><trkpt lat="42.7232866" lon="13.6622307"><ele>476.0</ele><time>2026-04-09T10:24:06.17Z</time></trkpt><trkpt lat="42.7233982" lon="13.6622487"><ele>476.0</ele><time>2026-04-09T10:24:07.171Z</time></trkpt><trkpt lat="42.723511" lon="13.6622657"><ele>476.0</ele><time>2026-04-09T10:24:08.184Z</time></trkpt><trkpt lat="42.723625" lon="13.6622855"><ele>475.5</ele><time>2026-04-09T10:24:09.178Z</time></trkpt><trkpt lat="42.7237436" lon="13.6623043"><ele>475.0</ele><time>2026-04-09T10:24:10.169Z</time></trkpt><trkpt lat="42.7238661" lon="13.6623219"><ele>474.5</ele><time>2026-04-09T10:24:11.185Z</time></trkpt><trkpt lat="42.723991" lon="13.6623412"><ele>474.0</ele><time>2026-04-09T10:24:12.172Z</time></trkpt><trkpt lat="42.7241176" lon="13.6623617"><ele>474.0</ele><time>2026-04-09T10:24:13.172Z</time></trkpt><trkpt lat="42.7242465" lon="13.6623825"><ele>474.0</ele><time>2026-04-09T10:24:14.184Z</time></trkpt><trkpt lat="42.7243786" lon="13.6624019"><ele>474.0</ele><time>2026-04-09T10:24:15.182Z</time></trkpt><trkpt lat="42.7245145" lon="13.6624215"><ele>474.0</ele><time>2026-04-09T10:24:16.172Z</time></trkpt><trkpt lat="42.7246538" lon="13.6624422"><ele>473.5</ele><time>2026-04-09T10:24:17.172Z</time></trkpt><trkpt lat="42.7247941" lon="13.6624619"><ele>473.0</ele><time>2026-04-09T10:24:18.179Z</time></trkpt><trkpt lat="42.7249277" lon="13.6624837"><ele>472.5</ele><time>2026-04-09T10:24:19.167Z</time></trkpt><trkpt lat="42.7250535" lon="13.6625045"><ele>472.0</ele><time>2026-04-09T10:24:20.181Z</time></trkpt><trkpt lat="42.7251711" lon="13.6625261"><ele>471.8</ele><time>2026-04-09T10:24:21.183Z</time></trkpt><trkpt lat="42.7252835" lon="13.662543"><ele>471.6</ele><time>2026-04-09T10:24:22.186Z</time></trkpt><trkpt lat="42.7253863" lon="13.6625566"><ele>471.40000000000003</ele><time>2026-04-09T10:24:23.17Z</time></trkpt><trkpt lat="42.7254933" lon="13.6625732"><ele>471.20000000000005</ele><time>2026-04-09T10:24:24.163Z</time></trkpt><trkpt lat="42.7255992" lon="13.6625893"><ele>471.0</ele><time>2026-04-09T10:24:25.165Z</time></trkpt><trkpt lat="42.7257068" lon="13.6626029"><ele>471.0</ele><time>2026-04-09T10:24:26.17Z</time></trkpt><trkpt lat="42.7258139" lon="13.6626254"><ele>471.0</ele><time>2026-04-09T10:24:27.16Z</time></trkpt><trkpt lat="42.7259308" lon="13.6626498"><ele>471.0</ele><time>2026-04-09T10:24:28.163Z</time></trkpt><trkpt lat="42.726048" lon="13.6626782"><ele>471.0</ele><time>2026-04-09T10:24:29.166Z</time></trkpt><trkpt lat="42.7261727" lon="13.6627007"><ele>470.75</ele><time>2026-04-09T10:24:30.171Z</time></trkpt><trkpt lat="42.7263022" lon="13.662725"><ele>470.5</ele><time>2026-04-09T10:24:31.16Z</time></trkpt><trkpt lat="42.7264297" lon="13.6627412"><ele>470.25</ele><time>2026-04-09T10:24:32.172Z</time></trkpt><trkpt lat="42.7265576" lon="13.662756"><ele>470.0</ele><time>2026-04-09T10:24:33.166Z</time></trkpt><trkpt lat="42.7266899" lon="13.6627744"><ele>468.5</ele><time>2026-04-09T10:24:34.176Z</time></trkpt><trkpt lat="42.7268282" lon="13.6628"><ele>467.0</ele><time>2026-04-09T10:24:35.166Z</time></trkpt><trkpt lat="42.7269678" lon="13.6628273"><ele>465.5</ele><time>2026-04-09T10:24:36.163Z</time></trkpt><trkpt lat="42.7271108" lon="13.6628536"><ele>464.0</ele><time>2026-04-09T10:24:37.165Z</time></trkpt><trkpt lat="42.7272481" lon="13.6628758"><ele>464.0</ele><time>2026-04-09T10:24:38.171Z</time></trkpt><trkpt lat="42.727376" lon="13.6628962"><ele>464.0</ele><time>2026-04-09T10:24:39.181Z</time></trkpt><trkpt lat="42.7274944" lon="13.6629154"><ele>464.0</ele><time>2026-04-09T10:24:40.171Z</time></trkpt><trkpt lat="42.7275965" lon="13.6629368"><ele>464.0</ele><time>2026-04-09T10:24:41.169Z</time></trkpt><trkpt lat="42.7276864" lon="13.6629552"><ele>464.0</ele><time>2026-04-09T10:24:42.171Z</time></trkpt><trkpt lat="42.727791" lon="13.6629717"><ele>463.2</ele><time>2026-04-09T10:24:44.171Z</time></trkpt><trkpt lat="42.7278347" lon="13.6630968"><ele>462.4</ele><time>2026-04-09T10:24:47.174Z</time></trkpt><trkpt lat="42.7278739" lon="13.6631655"><ele>461.6</ele><time>2026-04-09T10:24:48.167Z</time></trkpt><trkpt lat="42.7279186" lon="13.6632934"><ele>460.8</ele><time>2026-04-09T10:24:49.175Z</time></trkpt><trkpt lat="42.7279481" lon="13.6634847"><ele>460.0</ele><time>2026-04-09T10:24:50.177Z</time></trkpt><trkpt lat="42.7279331" lon="13.663691"><ele>458.6666666666667</ele><time>2026-04-09T10:24:51.17Z</time></trkpt><trkpt lat="42.7279178" lon="13.6639257"><ele>457.33333333333337</ele><time>2026-04-09T10:24:52.172Z</time></trkpt><trkpt lat="42.7278834" lon="13.6641417"><ele>456.0</ele><time>2026-04-09T10:24:53.178Z</time></trkpt><trkpt lat="42.7278581" lon="13.6643337"><ele>454.25</ele><time>2026-04-09T10:24:54.177Z</time></trkpt><trkpt lat="42.7278428" lon="13.6645188"><ele>452.5</ele><time>2026-04-09T10:24:55.17Z</time></trkpt><trkpt lat="42.7278326" lon="13.6647015"><ele>450.75</ele><time>2026-04-09T10:24:56.166Z</time></trkpt><trkpt lat="42.727836" lon="13.6648694"><ele>449.0</ele><time>2026-04-09T10:24:57.17Z</time></trkpt><trkpt lat="42.7278374" lon="13.6650387"><ele>449.0</ele><time>2026-04-09T10:24:58.166Z</time></trkpt><trkpt lat="42.7278445" lon="13.6651934"><ele>449.0</ele><time>2026-04-09T10:24:59.172Z</time></trkpt><trkpt lat="42.7278579" lon="13.6653275"><ele>449.0</ele><time>2026-04-09T10:25:00.173Z</time></trkpt><trkpt lat="42.7278666" lon="13.6654405"><ele>449.0</ele><time>2026-04-09T10:25:01.177Z</time></trkpt><trkpt lat="42.7278744" lon="13.665556"><ele>449.0</ele><time>2026-04-09T10:25:02.168Z</time></trkpt><trkpt lat="42.7278864" lon="13.6656725"><ele>448.0</ele><time>2026-04-09T10:25:03.178Z</time></trkpt><trkpt lat="42.7278826" lon="13.6657952"><ele>447.0</ele><time>2026-04-09T10:25:04.188Z</time></trkpt><trkpt lat="42.7278716" lon="13.6659427"><ele>446.0</ele><time>2026-04-09T10:25:05.177Z</time></trkpt><trkpt lat="42.7278513" lon="13.6661333"><ele>445.0</ele><time>2026-04-09T10:25:06.167Z</time></trkpt><trkpt lat="42.7278362" lon="13.6663333"><ele>444.25</ele><time>2026-04-09T10:25:07.171Z</time></trkpt><trkpt lat="42.7278224" lon="13.6665386"><ele>443.5</ele><time>2026-04-09T10:25:08.172Z</time></trkpt><trkpt lat="42.7278123" lon="13.6667327"><ele>442.75</ele><time>2026-04-09T10:25:09.169Z</time></trkpt><trkpt lat="42.727799" lon="13.6669244"><ele>442.0</ele><time>2026-04-09T10:25:10.184Z</time></trkpt><trkpt lat="42.7277803" lon="13.667108"><ele>442.25</ele><time>2026-04-09T10:25:11.186Z</time></trkpt><trkpt lat="42.7277602" lon="13.6672866"><ele>442.5</ele><time>2026-04-09T10:25:12.18Z</time></trkpt><trkpt lat="42.7277398" lon="13.667467"><ele>442.75</ele><time>2026-04-09T10:25:13.2Z</time></trkpt><trkpt lat="42.727708" lon="13.6676447"><ele>443.0</ele><time>2026-04-09T10:25:14.18Z</time></trkpt><trkpt lat="42.7276714" lon="13.6678318"><ele>441.66666666666663</ele><time>2026-04-09T10:25:15.179Z</time></trkpt><trkpt lat="42.7276366" lon="13.6680344"><ele>440.33333333333337</ele><time>2026-04-09T10:25:16.18Z</time></trkpt><trkpt lat="42.7275973" lon="13.6682567"><ele>439.0</ele><time>2026-04-09T10:25:17.182Z</time></trkpt><trkpt lat="42.7275609" lon="13.6685091"><ele>438.0</ele><time>2026-04-09T10:25:18.174Z</time></trkpt><trkpt lat="42.7275125" lon="13.6687491"><ele>437.0</ele><time>2026-04-09T10:25:19.17Z</time></trkpt><trkpt lat="42.7274643" lon="13.6689756"><ele>436.0</ele><time>2026-04-09T10:25:20.171Z</time></trkpt><trkpt lat="42.7274204" lon="13.6691665"><ele>436.0</ele><time>2026-04-09T10:25:21.185Z</time></trkpt><trkpt lat="42.7273735" lon="13.6693424"><ele>436.0</ele><time>2026-04-09T10:25:22.193Z</time></trkpt><trkpt lat="42.7273299" lon="13.6694893"><ele>436.0</ele><time>2026-04-09T10:25:23.174Z</time></trkpt><trkpt lat="42.7272857" lon="13.6696106"><ele>436.0</ele><time>2026-04-09T10:25:24.161Z</time></trkpt><trkpt lat="42.7272324" lon="13.6697446"><ele>435.75</ele><time>2026-04-09T10:25:25.167Z</time></trkpt><trkpt lat="42.7271743" lon="13.6698714"><ele>435.5</ele><time>2026-04-09T10:25:26.164Z</time></trkpt><trkpt lat="42.7271097" lon="13.6700011"><ele>435.25</ele><time>2026-04-09T10:25:27.171Z</time></trkpt><trkpt lat="42.7270379" lon="13.6701338"><ele>435.0</ele><time>2026-04-09T10:25:28.174Z</time></trkpt><trkpt lat="42.7269673" lon="13.6702578"><ele>434.0</ele><time>2026-04-09T10:25:29.173Z</time></trkpt><trkpt lat="42.7268923" lon="13.6703575"><ele>433.0</ele><time>2026-04-09T10:25:30.17Z</time></trkpt><trkpt lat="42.7267885" lon="13.670389"><ele>432.0</ele><time>2026-04-09T10:25:31.167Z</time></trkpt><trkpt lat="42.7266572" lon="13.6703842"><ele>431.0</ele><time>2026-04-09T10:25:32.169Z</time></trkpt><trkpt lat="42.7265327" lon="13.6703397"><ele>431.0</ele><time>2026-04-09T10:25:33.171Z</time></trkpt><trkpt lat="42.7264137" lon="13.6703061"><ele>431.0</ele><time>2026-04-09T10:25:34.166Z</time></trkpt><trkpt lat="42.7262956" lon="13.6702822"><ele>431.0</ele><time>2026-04-09T10:25:35.182Z</time></trkpt><trkpt lat="42.7261839" lon="13.6702764"><ele>431.0</ele><time>2026-04-09T10:25:36.165Z</time></trkpt><trkpt lat="42.7260613" lon="13.67032"><ele>432.5</ele><time>2026-04-09T10:25:37.167Z</time></trkpt><trkpt lat="42.7259561" lon="13.6703642"><ele>434.0</ele><time>2026-04-09T10:25:38.171Z</time></trkpt><trkpt lat="42.7258973" lon="13.6704574"><ele>435.5</ele><time>2026-04-09T10:25:39.177Z</time></trkpt><trkpt lat="42.7258663" lon="13.6706514"><ele>437.0</ele><time>2026-04-09T10:25:40.166Z</time></trkpt><trkpt lat="42.7258505" lon="13.6708542"><ele>437.0</ele><time>2026-04-09T10:25:41.177Z</time></trkpt><trkpt lat="42.7258443" lon="13.6709815"><ele>437.00000000000006</ele><time>2026-04-09T10:25:42.165Z</time></trkpt><trkpt lat="42.7258712" lon="13.6711124"><ele>437.00000000000006</ele><time>2026-04-09T10:25:44.167Z</time></trkpt><trkpt lat="42.7259685" lon="13.6711983"><ele>437.0</ele><time>2026-04-09T10:25:46.164Z</time></trkpt><trkpt lat="42.7260442" lon="13.6712496"><ele>437.0</ele><time>2026-04-09T10:25:47.178Z</time></trkpt><trkpt lat="42.7261391" lon="13.6713096"><ele>435.5</ele><time>2026-04-09T10:25:48.173Z</time></trkpt><trkpt lat="42.726244" lon="13.671385"><ele>434.0</ele><time>2026-04-09T10:25:49.161Z</time></trkpt><trkpt lat="42.7263498" lon="13.6714714"><ele>432.5</ele><time>2026-04-09T10:25:50.169Z</time></trkpt><trkpt lat="42.7264441" lon="13.6715899"><ele>431.0</ele><time>2026-04-09T10:25:51.17Z</time></trkpt><trkpt lat="42.7265319" lon="13.6717147"><ele>431.0</ele><time>2026-04-09T10:25:52.169Z</time></trkpt><trkpt lat="42.7266169" lon="13.6718376"><ele>431.0</ele><time>2026-04-09T10:25:53.168Z</time></trkpt><trkpt lat="42.726684" lon="13.6719832"><ele>431.0</ele><time>2026-04-09T10:25:54.169Z</time></trkpt><trkpt lat="42.7267169" lon="13.6721593"><ele>431.0</ele><time>2026-04-09T10:25:55.17Z</time></trkpt><trkpt lat="42.7267361" lon="13.6723502"><ele>431.0</ele><time>2026-04-09T10:25:56.161Z</time></trkpt><trkpt lat="42.7267489" lon="13.6725427"><ele>431.0</ele><time>2026-04-09T10:25:57.172Z</time></trkpt><trkpt lat="42.7267487" lon="13.6727442"><ele>431.0</ele><time>2026-04-09T10:25:58.168Z</time></trkpt><trkpt lat="42.7267195" lon="13.6729255"><ele>431.0</ele><time>2026-04-09T10:25:59.163Z</time></trkpt><trkpt lat="42.7266587" lon="13.6731048"><ele>431.0</ele><time>2026-04-09T10:26:00.161Z</time></trkpt><trkpt lat="42.7265743" lon="13.6732674"><ele>431.0</ele><time>2026-04-09T10:26:01.165Z</time></trkpt><trkpt lat="42.7264952" lon="13.6733903"><ele>431.0</ele><time>2026-04-09T10:26:02.167Z</time></trkpt><trkpt lat="42.7264045" lon="13.6735249"><ele>431.0</ele><time>2026-04-09T10:26:03.166Z</time></trkpt><trkpt lat="42.7263156" lon="13.6736683"><ele>430.0</ele><time>2026-04-09T10:26:04.162Z</time></trkpt><trkpt lat="42.7262388" lon="13.6738267"><ele>429.0</ele><time>2026-04-09T10:26:05.169Z</time></trkpt><trkpt lat="42.7261824" lon="13.6740036"><ele>428.0</ele><time>2026-04-09T10:26:06.174Z</time></trkpt><trkpt lat="42.7261525" lon="13.674194"><ele>427.0</ele><time>2026-04-09T10:26:07.168Z</time></trkpt><trkpt lat="42.7260905" lon="13.6743724"><ele>427.75</ele><time>2026-04-09T10:26:08.16Z</time></trkpt><trkpt lat="42.7259997" lon="13.6745022"><ele>428.5</ele><time>2026-04-09T10:26:09.16Z</time></trkpt><trkpt lat="42.7258915" lon="13.6746433"><ele>429.25</ele><time>2026-04-09T10:26:10.168Z</time></trkpt><trkpt lat="42.7258019" lon="13.6747568"><ele>430.0</ele><time>2026-04-09T10:26:11.176Z</time></trkpt><trkpt lat="42.7257258" lon="13.6748924"><ele>430.0</ele><time>2026-04-09T10:26:12.175Z</time></trkpt><trkpt lat="42.7256795" lon="13.6750551"><ele>430.0</ele><time>2026-04-09T10:26:13.165Z</time></trkpt><trkpt lat="42.7256528" lon="13.6752582"><ele>430.0</ele><time>2026-04-09T10:26:14.169Z</time></trkpt><trkpt lat="42.7256669" lon="13.6754612"><ele>430.0</ele><time>2026-04-09T10:26:15.167Z</time></trkpt><trkpt lat="42.7256849" lon="13.6756227"><ele>429.1666666666667</ele><time>2026-04-09T10:26:16.169Z</time></trkpt><trkpt lat="42.7256922" lon="13.6757608"><ele>428.33333333333337</ele><time>2026-04-09T10:26:17.174Z</time></trkpt><trkpt lat="42.7257031" lon="13.6758866"><ele>427.5</ele><time>2026-04-09T10:26:18.164Z</time></trkpt><trkpt lat="42.7257205" lon="13.6759942"><ele>426.66666666666663</ele><time>2026-04-09T10:26:19.16Z</time></trkpt><trkpt lat="42.7257366" lon="13.6760986"><ele>425.8333333333333</ele><time>2026-04-09T10:26:20.158Z</time></trkpt><trkpt lat="42.7257585" lon="13.6761853"><ele>425.0</ele><time>2026-04-09T10:26:21.169Z</time></trkpt><trkpt lat="42.7257638" lon="13.6762833"><ele>424.0</ele><time>2026-04-09T10:26:22.17Z</time></trkpt><trkpt lat="42.7257646" lon="13.6763923"><ele>423.0</ele><time>2026-04-09T10:26:23.166Z</time></trkpt><trkpt lat="42.7257655" lon="13.6765039"><ele>422.0</ele><time>2026-04-09T10:26:24.171Z</time></trkpt><trkpt lat="42.7257703" lon="13.6766376"><ele>421.0</ele><time>2026-04-09T10:26:25.167Z</time></trkpt><trkpt lat="42.7257695" lon="13.6767897"><ele>420.0</ele><time>2026-04-09T10:26:26.167Z</time></trkpt><trkpt lat="42.7257586" lon="13.676951"><ele>418.5</ele><time>2026-04-09T10:26:27.17Z</time></trkpt><trkpt lat="42.7257538" lon="13.6771049"><ele>417.0</ele><time>2026-04-09T10:26:28.17Z</time></trkpt><trkpt lat="42.7257554" lon="13.6772717"><ele>415.5</ele><time>2026-04-09T10:26:29.165Z</time></trkpt><trkpt lat="42.7257571" lon="13.6774525"><ele>414.0</ele><time>2026-04-09T10:26:30.177Z</time></trkpt><trkpt lat="42.7257639" lon="13.6776161"><ele>414.0</ele><time>2026-04-09T10:26:31.165Z</time></trkpt><trkpt lat="42.7257617" lon="13.6777649"><ele>414.0</ele><time>2026-04-09T10:26:32.171Z</time></trkpt><trkpt lat="42.7257394" lon="13.6778967"><ele>414.0</ele><time>2026-04-09T10:26:33.169Z</time></trkpt><trkpt lat="42.7257042" lon="13.678035"><ele>414.0</ele><time>2026-04-09T10:26:34.17Z</time></trkpt><trkpt lat="42.7256559" lon="13.6781794"><ele>414.0</ele><time>2026-04-09T10:26:35.167Z</time></trkpt><trkpt lat="42.7256133" lon="13.6783211"><ele>413.0</ele><time>2026-04-09T10:26:36.17Z</time></trkpt><trkpt lat="42.7255765" lon="13.6784503"><ele>412.0</ele><time>2026-04-09T10:26:37.169Z</time></trkpt><trkpt lat="42.7255417" lon="13.6785795"><ele>411.0</ele><time>2026-04-09T10:26:38.168Z</time></trkpt><trkpt lat="42.7255007" lon="13.6787151"><ele>410.0</ele><time>2026-04-09T10:26:39.173Z</time></trkpt><trkpt lat="42.7254602" lon="13.6788611"><ele>409.0</ele><time>2026-04-09T10:26:40.165Z</time></trkpt><trkpt lat="42.7254137" lon="13.6790105"><ele>408.5</ele><time>2026-04-09T10:26:41.168Z</time></trkpt><trkpt lat="42.725376" lon="13.6791926"><ele>408.0</ele><time>2026-04-09T10:26:42.166Z</time></trkpt><trkpt lat="42.7253419" lon="13.679388"><ele>407.5</ele><time>2026-04-09T10:26:43.177Z</time></trkpt><trkpt lat="42.7253139" lon="13.6795033"><ele>407.0</ele><time>2026-04-09T10:26:44.169Z</time></trkpt><trkpt lat="42.7252796" lon="13.6796932"><ele>407.0</ele><time>2026-04-09T10:26:45.168Z</time></trkpt><trkpt lat="42.725251" lon="13.6798499"><ele>407.0</ele><time>2026-04-09T10:26:46.158Z</time></trkpt><trkpt lat="42.7251968" lon="13.6800128"><ele>407.0</ele><time>2026-04-09T10:26:47.203Z</time></trkpt><trkpt lat="42.7251499" lon="13.6802022"><ele>407.0</ele><time>2026-04-09T10:26:48.173Z</time></trkpt><trkpt lat="42.7251126" lon="13.6803815"><ele>403.6</ele><time>2026-04-09T10:26:49.173Z</time></trkpt><trkpt lat="42.7251015" lon="13.680512"><ele>400.20000000000005</ele><time>2026-04-09T10:26:50.172Z</time></trkpt><trkpt lat="42.7250872" lon="13.6806518"><ele>396.8</ele><time>2026-04-09T10:26:51.17Z</time></trkpt><trkpt lat="42.7250863" lon="13.6807776"><ele>393.4</ele><time>2026-04-09T10:26:52.161Z</time></trkpt><trkpt lat="42.7250696" lon="13.6809"><ele>390.0</ele><time>2026-04-09T10:26:53.169Z</time></trkpt><trkpt lat="42.7250177" lon="13.6810115"><ele>389.0</ele><time>2026-04-09T10:26:54.167Z</time></trkpt><trkpt lat="42.7249272" lon="13.6810999"><ele>388.0</ele><time>2026-04-09T10:26:55.168Z</time></trkpt><trkpt lat="42.7248378" lon="13.6811824"><ele>387.0</ele><time>2026-04-09T10:26:56.181Z</time></trkpt><trkpt lat="42.7247595" lon="13.6812561"><ele>386.0</ele><time>2026-04-09T10:26:57.166Z</time></trkpt><trkpt lat="42.7246867" lon="13.6813206"><ele>385.0</ele><time>2026-04-09T10:26:58.168Z</time></trkpt><trkpt lat="42.7246143" lon="13.6814163"><ele>385.0</ele><time>2026-04-09T10:26:59.173Z</time></trkpt><trkpt lat="42.7245525" lon="13.6814685"><ele>385.0</ele><time>2026-04-09T10:27:00.166Z</time></trkpt><trkpt lat="42.7244837" lon="13.6815121"><ele>385.0</ele><time>2026-04-09T10:27:02.169Z</time></trkpt><trkpt lat="42.7244169" lon="13.6815243"><ele>385.0</ele><time>2026-04-09T10:27:16.163Z</time></trkpt><trkpt lat="42.7243825" lon="13.6814342"><ele>369.0</ele><time>2026-04-09T10:27:17.174Z</time></trkpt></trkseg></trk></gpx>